<?xml version="1.0" encoding="UTF-8" standalone="no" ?>
<gpx xmlns="http://www.topografix.com/GPX/1/1" xmlns:xsi="http://www.w3.org/2001/XMLSchema-instance" xsi:schemaLocation="http://www.topografix.com/GPX/1/1 http://www.topografix.com/GPX/1/1/gpx.xsd" version="1.1" creator="VisuGPX - https://www.visugpx.com">
  <metadata>
    <name>037SG86-8208657</name>
    <desc><![CDATA[03
]]></desc>
  </metadata>
  <trk>
    <name><![CDATA[037SG86-8208657]]></name>
    <trkseg>
      <trkpt lat="46.69869" lon="-1.93391">
        <ele>5</ele>
        <time>2018-03-21T22:00:05Z</time>
      </trkpt>
      <trkpt lat="46.69813" lon="-1.9341">
        <ele>5</ele>
        <time>2018-03-21T22:01:05Z</time>
      </trkpt>
      <trkpt lat="46.69793" lon="-1.9342">
        <ele>5</ele>
        <time>2018-03-21T22:02:05Z</time>
      </trkpt>
      <trkpt lat="46.69793" lon="-1.93426">
        <ele>5</ele>
        <time>2018-03-21T22:03:05Z</time>
      </trkpt>
      <trkpt lat="46.6979" lon="-1.9343">
        <ele>5</ele>
        <time>2018-03-21T22:04:05Z</time>
      </trkpt>
      <trkpt lat="46.69785" lon="-1.93429">
        <ele>5</ele>
        <time>2018-03-21T22:05:05Z</time>
      </trkpt>
      <trkpt lat="46.69784" lon="-1.93422">
        <ele>5</ele>
        <time>2018-03-21T22:06:05Z</time>
      </trkpt>
      <trkpt lat="46.69777" lon="-1.93421">
        <ele>5</ele>
        <time>2018-03-21T22:07:05Z</time>
      </trkpt>
      <trkpt lat="46.69709" lon="-1.93437">
        <ele>5</ele>
        <time>2018-03-21T22:08:05Z</time>
      </trkpt>
      <trkpt lat="46.69684" lon="-1.93436">
        <ele>5</ele>
        <time>2018-03-21T22:09:05Z</time>
      </trkpt>
      <trkpt lat="46.69667" lon="-1.93431">
        <ele>5</ele>
        <time>2018-03-21T22:10:05Z</time>
      </trkpt>
      <trkpt lat="46.69631" lon="-1.93425">
        <ele>4</ele>
        <time>2018-03-21T22:11:05Z</time>
      </trkpt>
      <trkpt lat="46.69631" lon="-1.93428">
        <ele>4</ele>
        <time>2018-03-21T22:12:05Z</time>
      </trkpt>
      <trkpt lat="46.69627" lon="-1.93435">
        <ele>4</ele>
        <time>2018-03-21T22:13:05Z</time>
      </trkpt>
      <trkpt lat="46.69623" lon="-1.93436">
        <ele>4</ele>
        <time>2018-03-21T22:14:05Z</time>
      </trkpt>
      <trkpt lat="46.69619" lon="-1.93434">
        <ele>4</ele>
        <time>2018-03-21T22:15:05Z</time>
      </trkpt>
      <trkpt lat="46.69617" lon="-1.93422">
        <ele>4</ele>
        <time>2018-03-21T22:16:05Z</time>
      </trkpt>
      <trkpt lat="46.69607" lon="-1.93417">
        <ele>4</ele>
        <time>2018-03-21T22:17:05Z</time>
      </trkpt>
      <trkpt lat="46.69605" lon="-1.93424">
        <ele>4</ele>
        <time>2018-03-21T22:18:05Z</time>
      </trkpt>
      <trkpt lat="46.69586" lon="-1.93414">
        <ele>4</ele>
        <time>2018-03-21T22:19:05Z</time>
      </trkpt>
      <trkpt lat="46.69579" lon="-1.93414">
        <ele>4</ele>
        <time>2018-03-21T22:20:05Z</time>
      </trkpt>
      <trkpt lat="46.69525" lon="-1.9339">
        <ele>4</ele>
        <time>2018-03-21T22:21:05Z</time>
      </trkpt>
      <trkpt lat="46.69517" lon="-1.93383">
        <ele>4</ele>
        <time>2018-03-21T22:22:05Z</time>
      </trkpt>
      <trkpt lat="46.69413" lon="-1.93343">
        <ele>4</ele>
        <time>2018-03-21T22:23:05Z</time>
      </trkpt>
      <trkpt lat="46.69401" lon="-1.93341">
        <ele>4</ele>
        <time>2018-03-21T22:24:05Z</time>
      </trkpt>
      <trkpt lat="46.69395" lon="-1.93344">
        <ele>4</ele>
        <time>2018-03-21T22:25:05Z</time>
      </trkpt>
      <trkpt lat="46.6939" lon="-1.93352">
        <ele>4</ele>
        <time>2018-03-21T22:26:05Z</time>
      </trkpt>
      <trkpt lat="46.69385" lon="-1.93353">
        <ele>4</ele>
        <time>2018-03-21T22:27:05Z</time>
      </trkpt>
      <trkpt lat="46.69381" lon="-1.93351">
        <ele>4</ele>
        <time>2018-03-21T22:28:05Z</time>
      </trkpt>
      <trkpt lat="46.69372" lon="-1.93338">
        <ele>4</ele>
        <time>2018-03-21T22:29:05Z</time>
      </trkpt>
      <trkpt lat="46.69278" lon="-1.93322">
        <ele>3</ele>
        <time>2018-03-21T22:30:05Z</time>
      </trkpt>
      <trkpt lat="46.69225" lon="-1.93316">
        <ele>3</ele>
        <time>2018-03-21T22:31:05Z</time>
      </trkpt>
      <trkpt lat="46.69219" lon="-1.93318">
        <ele>3</ele>
        <time>2018-03-21T22:32:05Z</time>
      </trkpt>
      <trkpt lat="46.69196" lon="-1.93314">
        <ele>3</ele>
        <time>2018-03-21T22:33:05Z</time>
      </trkpt>
      <trkpt lat="46.69187" lon="-1.93319">
        <ele>3</ele>
        <time>2018-03-21T22:34:05Z</time>
      </trkpt>
      <trkpt lat="46.69181" lon="-1.93319">
        <ele>3</ele>
        <time>2018-03-21T22:35:05Z</time>
      </trkpt>
      <trkpt lat="46.69173" lon="-1.93325">
        <ele>3</ele>
        <time>2018-03-21T22:36:05Z</time>
      </trkpt>
      <trkpt lat="46.69168" lon="-1.93322">
        <ele>3</ele>
        <time>2018-03-21T22:37:05Z</time>
      </trkpt>
      <trkpt lat="46.69171" lon="-1.93311">
        <ele>3</ele>
        <time>2018-03-21T22:38:05Z</time>
      </trkpt>
      <trkpt lat="46.69166" lon="-1.93304">
        <ele>3</ele>
        <time>2018-03-21T22:39:05Z</time>
      </trkpt>
      <trkpt lat="46.69165" lon="-1.93297">
        <ele>3</ele>
        <time>2018-03-21T22:40:05Z</time>
      </trkpt>
      <trkpt lat="46.69167" lon="-1.9329">
        <ele>2</ele>
        <time>2018-03-21T22:41:05Z</time>
      </trkpt>
      <trkpt lat="46.6917" lon="-1.93287">
        <ele>2</ele>
        <time>2018-03-21T22:42:05Z</time>
      </trkpt>
      <trkpt lat="46.69167" lon="-1.93278">
        <ele>2</ele>
        <time>2018-03-21T22:43:05Z</time>
      </trkpt>
      <trkpt lat="46.69167" lon="-1.93259">
        <ele>2</ele>
        <time>2018-03-21T22:44:05Z</time>
      </trkpt>
      <trkpt lat="46.69183" lon="-1.93152">
        <ele>4</ele>
        <time>2018-03-21T22:45:05Z</time>
      </trkpt>
      <trkpt lat="46.69189" lon="-1.93132">
        <ele>4</ele>
        <time>2018-03-21T22:46:05Z</time>
      </trkpt>
      <trkpt lat="46.69223" lon="-1.93056">
        <ele>5</ele>
        <time>2018-03-21T22:47:05Z</time>
      </trkpt>
      <trkpt lat="46.69119" lon="-1.92964">
        <ele>4</ele>
        <time>2018-03-21T22:48:05Z</time>
      </trkpt>
      <trkpt lat="46.69068" lon="-1.92911">
        <ele>4</ele>
        <time>2018-03-21T22:49:05Z</time>
      </trkpt>
      <trkpt lat="46.68951" lon="-1.92754">
        <ele>4</ele>
        <time>2018-03-21T22:50:05Z</time>
      </trkpt>
      <trkpt lat="46.68936" lon="-1.92742">
        <ele>4</ele>
        <time>2018-03-21T22:51:05Z</time>
      </trkpt>
      <trkpt lat="46.68924" lon="-1.92732">
        <ele>4</ele>
        <time>2018-03-21T22:52:05Z</time>
      </trkpt>
      <trkpt lat="46.68851" lon="-1.92699">
        <ele>6</ele>
        <time>2018-03-21T22:53:05Z</time>
      </trkpt>
      <trkpt lat="46.68845" lon="-1.92703">
        <ele>7</ele>
        <time>2018-03-21T22:54:05Z</time>
      </trkpt>
      <trkpt lat="46.6884" lon="-1.92698">
        <ele>7</ele>
        <time>2018-03-21T22:55:05Z</time>
      </trkpt>
      <trkpt lat="46.68821" lon="-1.92705">
        <ele>7</ele>
        <time>2018-03-21T22:56:05Z</time>
      </trkpt>
      <trkpt lat="46.68819" lon="-1.92704">
        <ele>7</ele>
        <time>2018-03-21T22:57:05Z</time>
      </trkpt>
      <trkpt lat="46.68817" lon="-1.92696">
        <ele>7</ele>
        <time>2018-03-21T22:58:05Z</time>
      </trkpt>
      <trkpt lat="46.68817" lon="-1.92693">
        <ele>7</ele>
        <time>2018-03-21T22:59:05Z</time>
      </trkpt>
      <trkpt lat="46.68815" lon="-1.92691">
        <ele>7</ele>
        <time>2018-03-21T23:00:05Z</time>
      </trkpt>
      <trkpt lat="46.68774" lon="-1.92675">
        <ele>8</ele>
        <time>2018-03-21T23:01:05Z</time>
      </trkpt>
      <trkpt lat="46.68733" lon="-1.92655">
        <ele>8</ele>
        <time>2018-03-21T23:02:05Z</time>
      </trkpt>
      <trkpt lat="46.68666" lon="-1.92613">
        <ele>10</ele>
        <time>2018-03-21T23:03:05Z</time>
      </trkpt>
      <trkpt lat="46.68626" lon="-1.92579">
        <ele>10</ele>
        <time>2018-03-21T23:04:05Z</time>
      </trkpt>
      <trkpt lat="46.68562" lon="-1.92498">
        <ele>10</ele>
        <time>2018-03-21T23:05:05Z</time>
      </trkpt>
      <trkpt lat="46.68562" lon="-1.92498">
        <ele>10</ele>
        <time>2018-03-21T23:06:05Z</time>
      </trkpt>
      <trkpt lat="46.68533" lon="-1.92462">
        <ele>10</ele>
        <time>2018-03-21T23:07:05Z</time>
      </trkpt>
      <trkpt lat="46.68495" lon="-1.92421">
        <ele>10</ele>
        <time>2018-03-21T23:08:05Z</time>
      </trkpt>
      <trkpt lat="46.68477" lon="-1.92411">
        <ele>10</ele>
        <time>2018-03-21T23:09:05Z</time>
      </trkpt>
      <trkpt lat="46.68452" lon="-1.92402">
        <ele>10</ele>
        <time>2018-03-21T23:10:05Z</time>
      </trkpt>
      <trkpt lat="46.68415" lon="-1.92395">
        <ele>10</ele>
        <time>2018-03-21T23:11:05Z</time>
      </trkpt>
      <trkpt lat="46.68401" lon="-1.92386">
        <ele>10</ele>
        <time>2018-03-21T23:12:05Z</time>
      </trkpt>
      <trkpt lat="46.68387" lon="-1.92365">
        <ele>10</ele>
        <time>2018-03-21T23:13:05Z</time>
      </trkpt>
      <trkpt lat="46.68304" lon="-1.92221">
        <ele>9</ele>
        <time>2018-03-21T23:14:05Z</time>
      </trkpt>
      <trkpt lat="46.68253" lon="-1.92142">
        <ele>7</ele>
        <time>2018-03-21T23:15:05Z</time>
      </trkpt>
      <trkpt lat="46.68157" lon="-1.92004">
        <ele>8</ele>
        <time>2018-03-21T23:16:05Z</time>
      </trkpt>
      <trkpt lat="46.67536" lon="-1.91126">
        <ele>5</ele>
        <time>2018-03-21T23:17:05Z</time>
      </trkpt>
      <trkpt lat="46.67454" lon="-1.91009">
        <ele>4</ele>
        <time>2018-03-21T23:18:05Z</time>
      </trkpt>
      <trkpt lat="46.67439" lon="-1.90982">
        <ele>3</ele>
        <time>2018-03-21T23:19:05Z</time>
      </trkpt>
      <trkpt lat="46.67432" lon="-1.90973">
        <ele>3</ele>
        <time>2018-03-21T23:20:05Z</time>
      </trkpt>
      <trkpt lat="46.67425" lon="-1.90968">
        <ele>3</ele>
        <time>2018-03-21T23:21:05Z</time>
      </trkpt>
      <trkpt lat="46.67419" lon="-1.90958">
        <ele>3</ele>
        <time>2018-03-21T23:22:05Z</time>
      </trkpt>
      <trkpt lat="46.67416" lon="-1.90944">
        <ele>3</ele>
        <time>2018-03-21T23:23:05Z</time>
      </trkpt>
      <trkpt lat="46.67412" lon="-1.90936">
        <ele>3</ele>
        <time>2018-03-21T23:24:05Z</time>
      </trkpt>
      <trkpt lat="46.67311" lon="-1.9081">
        <ele>2</ele>
        <time>2018-03-21T23:25:05Z</time>
      </trkpt>
      <trkpt lat="46.67116" lon="-1.90534">
        <ele>5</ele>
        <time>2018-03-21T23:26:05Z</time>
      </trkpt>
      <trkpt lat="46.67054" lon="-1.90455">
        <ele>5</ele>
        <time>2018-03-21T23:27:05Z</time>
      </trkpt>
      <trkpt lat="46.66982" lon="-1.90359">
        <ele>5</ele>
        <time>2018-03-21T23:28:05Z</time>
      </trkpt>
      <trkpt lat="46.66973" lon="-1.90354">
        <ele>5</ele>
        <time>2018-03-21T23:29:05Z</time>
      </trkpt>
      <trkpt lat="46.66966" lon="-1.9034">
        <ele>5</ele>
        <time>2018-03-21T23:30:05Z</time>
      </trkpt>
      <trkpt lat="46.66965" lon="-1.90327">
        <ele>5</ele>
        <time>2018-03-21T23:31:05Z</time>
      </trkpt>
      <trkpt lat="46.66969" lon="-1.90314">
        <ele>5</ele>
        <time>2018-03-21T23:32:05Z</time>
      </trkpt>
      <trkpt lat="46.66979" lon="-1.90305">
        <ele>6</ele>
        <time>2018-03-21T23:33:05Z</time>
      </trkpt>
      <trkpt lat="46.66984" lon="-1.90291">
        <ele>6</ele>
        <time>2018-03-21T23:34:05Z</time>
      </trkpt>
      <trkpt lat="46.6699" lon="-1.90268">
        <ele>7</ele>
        <time>2018-03-21T23:35:05Z</time>
      </trkpt>
      <trkpt lat="46.6698" lon="-1.90201">
        <ele>8</ele>
        <time>2018-03-21T23:36:05Z</time>
      </trkpt>
      <trkpt lat="46.66889" lon="-1.89501">
        <ele>12</ele>
        <time>2018-03-21T23:37:05Z</time>
      </trkpt>
      <trkpt lat="46.66885" lon="-1.89452">
        <ele>12</ele>
        <time>2018-03-21T23:38:05Z</time>
      </trkpt>
      <trkpt lat="46.66884" lon="-1.89425">
        <ele>12</ele>
        <time>2018-03-21T23:39:05Z</time>
      </trkpt>
      <trkpt lat="46.66888" lon="-1.89386">
        <ele>12</ele>
        <time>2018-03-21T23:40:05Z</time>
      </trkpt>
      <trkpt lat="46.66899" lon="-1.89335">
        <ele>11</ele>
        <time>2018-03-21T23:41:05Z</time>
      </trkpt>
      <trkpt lat="46.66913" lon="-1.89291">
        <ele>11</ele>
        <time>2018-03-21T23:42:05Z</time>
      </trkpt>
      <trkpt lat="46.6691" lon="-1.89287">
        <ele>11</ele>
        <time>2018-03-21T23:43:05Z</time>
      </trkpt>
      <trkpt lat="46.66907" lon="-1.89277">
        <ele>11</ele>
        <time>2018-03-21T23:44:05Z</time>
      </trkpt>
      <trkpt lat="46.66908" lon="-1.89271">
        <ele>11</ele>
        <time>2018-03-21T23:45:05Z</time>
      </trkpt>
      <trkpt lat="46.66912" lon="-1.89263">
        <ele>11</ele>
        <time>2018-03-21T23:46:05Z</time>
      </trkpt>
      <trkpt lat="46.66919" lon="-1.89261">
        <ele>11</ele>
        <time>2018-03-21T23:47:05Z</time>
      </trkpt>
      <trkpt lat="46.66923" lon="-1.89262">
        <ele>11</ele>
        <time>2018-03-21T23:48:05Z</time>
      </trkpt>
      <trkpt lat="46.66979" lon="-1.89091">
        <ele>9</ele>
        <time>2018-03-21T23:49:05Z</time>
      </trkpt>
      <trkpt lat="46.66992" lon="-1.89065">
        <ele>9</ele>
        <time>2018-03-21T23:50:05Z</time>
      </trkpt>
      <trkpt lat="46.66996" lon="-1.89053">
        <ele>8</ele>
        <time>2018-03-21T23:51:05Z</time>
      </trkpt>
      <trkpt lat="46.66999" lon="-1.8903">
        <ele>8</ele>
        <time>2018-03-21T23:52:05Z</time>
      </trkpt>
      <trkpt lat="46.66999" lon="-1.89002">
        <ele>7</ele>
        <time>2018-03-21T23:53:05Z</time>
      </trkpt>
      <trkpt lat="46.67036" lon="-1.88833">
        <ele>10</ele>
        <time>2018-03-21T23:54:05Z</time>
      </trkpt>
      <trkpt lat="46.67055" lon="-1.88753">
        <ele>11</ele>
        <time>2018-03-21T23:55:05Z</time>
      </trkpt>
      <trkpt lat="46.67051" lon="-1.88751">
        <ele>11</ele>
        <time>2018-03-21T23:56:05Z</time>
      </trkpt>
      <trkpt lat="46.67047" lon="-1.88742">
        <ele>11</ele>
        <time>2018-03-21T23:57:05Z</time>
      </trkpt>
      <trkpt lat="46.67047" lon="-1.88736">
        <ele>11</ele>
        <time>2018-03-21T23:58:05Z</time>
      </trkpt>
      <trkpt lat="46.67052" lon="-1.88727">
        <ele>11</ele>
        <time>2018-03-21T23:59:05Z</time>
      </trkpt>
      <trkpt lat="46.67056" lon="-1.88725">
        <ele>11</ele>
        <time>2018-03-22T00:00:05Z</time>
      </trkpt>
      <trkpt lat="46.6706" lon="-1.88725">
        <ele>11</ele>
        <time>2018-03-22T00:01:05Z</time>
      </trkpt>
      <trkpt lat="46.67132" lon="-1.88411">
        <ele>10</ele>
        <time>2018-03-22T00:02:05Z</time>
      </trkpt>
      <trkpt lat="46.67137" lon="-1.88372">
        <ele>9</ele>
        <time>2018-03-22T00:03:05Z</time>
      </trkpt>
      <trkpt lat="46.67138" lon="-1.88325">
        <ele>9</ele>
        <time>2018-03-22T00:04:05Z</time>
      </trkpt>
      <trkpt lat="46.6714" lon="-1.88295">
        <ele>9</ele>
        <time>2018-03-22T00:05:05Z</time>
      </trkpt>
      <trkpt lat="46.6716" lon="-1.88223">
        <ele>8</ele>
        <time>2018-03-22T00:06:05Z</time>
      </trkpt>
      <trkpt lat="46.67156" lon="-1.88218">
        <ele>8</ele>
        <time>2018-03-22T00:07:05Z</time>
      </trkpt>
      <trkpt lat="46.67155" lon="-1.88208">
        <ele>7</ele>
        <time>2018-03-22T00:08:05Z</time>
      </trkpt>
      <trkpt lat="46.67157" lon="-1.88201">
        <ele>7</ele>
        <time>2018-03-22T00:09:05Z</time>
      </trkpt>
      <trkpt lat="46.67161" lon="-1.88197">
        <ele>7</ele>
        <time>2018-03-22T00:10:05Z</time>
      </trkpt>
      <trkpt lat="46.67168" lon="-1.88197">
        <ele>7</ele>
        <time>2018-03-22T00:11:05Z</time>
      </trkpt>
      <trkpt lat="46.67177" lon="-1.88153">
        <ele>8</ele>
        <time>2018-03-22T00:12:05Z</time>
      </trkpt>
      <trkpt lat="46.67184" lon="-1.88096">
        <ele>9</ele>
        <time>2018-03-22T00:13:05Z</time>
      </trkpt>
      <trkpt lat="46.67212" lon="-1.87901">
        <ele>10</ele>
        <time>2018-03-22T00:14:05Z</time>
      </trkpt>
      <trkpt lat="46.67215" lon="-1.87696">
        <ele>11</ele>
        <time>2018-03-22T00:15:05Z</time>
      </trkpt>
      <trkpt lat="46.6722" lon="-1.87617">
        <ele>11</ele>
        <time>2018-03-22T00:16:05Z</time>
      </trkpt>
      <trkpt lat="46.67248" lon="-1.87379">
        <ele>11</ele>
        <time>2018-03-22T00:17:05Z</time>
      </trkpt>
      <trkpt lat="46.67259" lon="-1.87236">
        <ele>9</ele>
        <time>2018-03-22T00:18:05Z</time>
      </trkpt>
      <trkpt lat="46.67259" lon="-1.87236">
        <ele>9</ele>
        <time>2018-03-22T00:19:05Z</time>
      </trkpt>
      <trkpt lat="46.67269" lon="-1.8711">
        <ele>9</ele>
        <time>2018-03-22T00:20:05Z</time>
      </trkpt>
      <trkpt lat="46.67271" lon="-1.87033">
        <ele>8</ele>
        <time>2018-03-22T00:21:05Z</time>
      </trkpt>
      <trkpt lat="46.6727" lon="-1.87011">
        <ele>8</ele>
        <time>2018-03-22T00:22:05Z</time>
      </trkpt>
      <trkpt lat="46.67264" lon="-1.86989">
        <ele>7</ele>
        <time>2018-03-22T00:23:05Z</time>
      </trkpt>
      <trkpt lat="46.67253" lon="-1.86963">
        <ele>5</ele>
        <time>2018-03-22T00:24:05Z</time>
      </trkpt>
      <trkpt lat="46.67181" lon="-1.86824">
        <ele>4</ele>
        <time>2018-03-22T00:25:05Z</time>
      </trkpt>
      <trkpt lat="46.67172" lon="-1.86801">
        <ele>4</ele>
        <time>2018-03-22T00:26:05Z</time>
      </trkpt>
      <trkpt lat="46.67168" lon="-1.86784">
        <ele>5</ele>
        <time>2018-03-22T00:27:05Z</time>
      </trkpt>
      <trkpt lat="46.67164" lon="-1.86733">
        <ele>6</ele>
        <time>2018-03-22T00:28:05Z</time>
      </trkpt>
      <trkpt lat="46.67166" lon="-1.8668">
        <ele>8</ele>
        <time>2018-03-22T00:29:05Z</time>
      </trkpt>
      <trkpt lat="46.6717" lon="-1.86646">
        <ele>8</ele>
        <time>2018-03-22T00:30:05Z</time>
      </trkpt>
      <trkpt lat="46.67181" lon="-1.866">
        <ele>8</ele>
        <time>2018-03-22T00:31:05Z</time>
      </trkpt>
      <trkpt lat="46.67226" lon="-1.86451">
        <ele>10</ele>
        <time>2018-03-22T00:32:05Z</time>
      </trkpt>
      <trkpt lat="46.67236" lon="-1.86403">
        <ele>10</ele>
        <time>2018-03-22T00:33:05Z</time>
      </trkpt>
      <trkpt lat="46.67241" lon="-1.86351">
        <ele>10</ele>
        <time>2018-03-22T00:34:05Z</time>
      </trkpt>
      <trkpt lat="46.67245" lon="-1.86265">
        <ele>10</ele>
        <time>2018-03-22T00:35:05Z</time>
      </trkpt>
      <trkpt lat="46.67248" lon="-1.86246">
        <ele>10</ele>
        <time>2018-03-22T00:36:05Z</time>
      </trkpt>
      <trkpt lat="46.67251" lon="-1.86231">
        <ele>11</ele>
        <time>2018-03-22T00:37:05Z</time>
      </trkpt>
      <trkpt lat="46.67275" lon="-1.86168">
        <ele>12</ele>
        <time>2018-03-22T00:38:05Z</time>
      </trkpt>
      <trkpt lat="46.67286" lon="-1.86119">
        <ele>12</ele>
        <time>2018-03-22T00:39:05Z</time>
      </trkpt>
      <trkpt lat="46.67298" lon="-1.86035">
        <ele>14</ele>
        <time>2018-03-22T00:40:05Z</time>
      </trkpt>
      <trkpt lat="46.67301" lon="-1.85999">
        <ele>15</ele>
        <time>2018-03-22T00:41:05Z</time>
      </trkpt>
      <trkpt lat="46.67304" lon="-1.85932">
        <ele>15</ele>
        <time>2018-03-22T00:42:05Z</time>
      </trkpt>
      <trkpt lat="46.67302" lon="-1.85841">
        <ele>16</ele>
        <time>2018-03-22T00:43:05Z</time>
      </trkpt>
      <trkpt lat="46.67296" lon="-1.85758">
        <ele>16</ele>
        <time>2018-03-22T00:44:05Z</time>
      </trkpt>
      <trkpt lat="46.67263" lon="-1.85355">
        <ele>19</ele>
        <time>2018-03-22T00:45:05Z</time>
      </trkpt>
      <trkpt lat="46.67255" lon="-1.85306">
        <ele>20</ele>
        <time>2018-03-22T00:46:05Z</time>
      </trkpt>
      <trkpt lat="46.67175" lon="-1.85022">
        <ele>18</ele>
        <time>2018-03-22T00:47:05Z</time>
      </trkpt>
      <trkpt lat="46.67164" lon="-1.84956">
        <ele>18</ele>
        <time>2018-03-22T00:48:05Z</time>
      </trkpt>
      <trkpt lat="46.67162" lon="-1.8493">
        <ele>18</ele>
        <time>2018-03-22T00:49:05Z</time>
      </trkpt>
      <trkpt lat="46.67162" lon="-1.84895">
        <ele>18</ele>
        <time>2018-03-22T00:50:05Z</time>
      </trkpt>
      <trkpt lat="46.67166" lon="-1.84842">
        <ele>18</ele>
        <time>2018-03-22T00:51:05Z</time>
      </trkpt>
      <trkpt lat="46.67247" lon="-1.84217">
        <ele>21</ele>
        <time>2018-03-22T00:52:05Z</time>
      </trkpt>
      <trkpt lat="46.67257" lon="-1.83916">
        <ele>23</ele>
        <time>2018-03-22T00:53:05Z</time>
      </trkpt>
      <trkpt lat="46.67255" lon="-1.83879">
        <ele>23</ele>
        <time>2018-03-22T00:54:05Z</time>
      </trkpt>
      <trkpt lat="46.67254" lon="-1.83853">
        <ele>23</ele>
        <time>2018-03-22T00:55:05Z</time>
      </trkpt>
      <trkpt lat="46.67238" lon="-1.83711">
        <ele>22</ele>
        <time>2018-03-22T00:56:05Z</time>
      </trkpt>
      <trkpt lat="46.67224" lon="-1.83555">
        <ele>20</ele>
        <time>2018-03-22T00:57:05Z</time>
      </trkpt>
      <trkpt lat="46.67203" lon="-1.83472">
        <ele>21</ele>
        <time>2018-03-22T00:58:05Z</time>
      </trkpt>
      <trkpt lat="46.67174" lon="-1.83378">
        <ele>22</ele>
        <time>2018-03-22T00:59:05Z</time>
      </trkpt>
      <trkpt lat="46.67149" lon="-1.83307">
        <ele>22</ele>
        <time>2018-03-22T01:00:05Z</time>
      </trkpt>
      <trkpt lat="46.6712" lon="-1.83235">
        <ele>21</ele>
        <time>2018-03-22T01:01:05Z</time>
      </trkpt>
      <trkpt lat="46.67039" lon="-1.83063">
        <ele>18</ele>
        <time>2018-03-22T01:02:05Z</time>
      </trkpt>
      <trkpt lat="46.67017" lon="-1.82987">
        <ele>18</ele>
        <time>2018-03-22T01:03:05Z</time>
      </trkpt>
      <trkpt lat="46.67017" lon="-1.82987">
        <ele>18</ele>
        <time>2018-03-22T01:04:05Z</time>
      </trkpt>
      <trkpt lat="46.67001" lon="-1.82932">
        <ele>18</ele>
        <time>2018-03-22T01:05:05Z</time>
      </trkpt>
      <trkpt lat="46.66996" lon="-1.82896">
        <ele>18</ele>
        <time>2018-03-22T01:06:05Z</time>
      </trkpt>
      <trkpt lat="46.66995" lon="-1.82863">
        <ele>18</ele>
        <time>2018-03-22T01:07:05Z</time>
      </trkpt>
      <trkpt lat="46.66998" lon="-1.82847">
        <ele>18</ele>
        <time>2018-03-22T01:08:05Z</time>
      </trkpt>
      <trkpt lat="46.67028" lon="-1.82763">
        <ele>18</ele>
        <time>2018-03-22T01:09:05Z</time>
      </trkpt>
      <trkpt lat="46.67044" lon="-1.8269">
        <ele>21</ele>
        <time>2018-03-22T01:10:05Z</time>
      </trkpt>
      <trkpt lat="46.6706" lon="-1.82682">
        <ele>22</ele>
        <time>2018-03-22T01:11:05Z</time>
      </trkpt>
      <trkpt lat="46.67059" lon="-1.82674">
        <ele>22</ele>
        <time>2018-03-22T01:12:05Z</time>
      </trkpt>
      <trkpt lat="46.67061" lon="-1.82667">
        <ele>23</ele>
        <time>2018-03-22T01:13:05Z</time>
      </trkpt>
      <trkpt lat="46.67065" lon="-1.82662">
        <ele>23</ele>
        <time>2018-03-22T01:14:05Z</time>
      </trkpt>
      <trkpt lat="46.6707" lon="-1.8266">
        <ele>23</ele>
        <time>2018-03-22T01:15:05Z</time>
      </trkpt>
      <trkpt lat="46.67075" lon="-1.82661">
        <ele>23</ele>
        <time>2018-03-22T01:16:05Z</time>
      </trkpt>
      <trkpt lat="46.67079" lon="-1.82604">
        <ele>26</ele>
        <time>2018-03-22T01:17:05Z</time>
      </trkpt>
      <trkpt lat="46.67092" lon="-1.82573">
        <ele>28</ele>
        <time>2018-03-22T01:18:05Z</time>
      </trkpt>
      <trkpt lat="46.6714" lon="-1.82497">
        <ele>31</ele>
        <time>2018-03-22T01:19:05Z</time>
      </trkpt>
      <trkpt lat="46.67248" lon="-1.82256">
        <ele>32</ele>
        <time>2018-03-22T01:20:05Z</time>
      </trkpt>
      <trkpt lat="46.67276" lon="-1.82183">
        <ele>32</ele>
        <time>2018-03-22T01:21:05Z</time>
      </trkpt>
      <trkpt lat="46.673" lon="-1.82112">
        <ele>32</ele>
        <time>2018-03-22T01:22:05Z</time>
      </trkpt>
      <trkpt lat="46.67325" lon="-1.82027">
        <ele>33</ele>
        <time>2018-03-22T01:23:05Z</time>
      </trkpt>
      <trkpt lat="46.67399" lon="-1.81821">
        <ele>32</ele>
        <time>2018-03-22T01:24:05Z</time>
      </trkpt>
      <trkpt lat="46.67428" lon="-1.81584">
        <ele>32</ele>
        <time>2018-03-22T01:25:05Z</time>
      </trkpt>
      <trkpt lat="46.67469" lon="-1.81421">
        <ele>35</ele>
        <time>2018-03-22T01:26:05Z</time>
      </trkpt>
      <trkpt lat="46.67504" lon="-1.81301">
        <ele>35</ele>
        <time>2018-03-22T01:27:05Z</time>
      </trkpt>
      <trkpt lat="46.6751" lon="-1.8106">
        <ele>31</ele>
        <time>2018-03-22T01:28:05Z</time>
      </trkpt>
      <trkpt lat="46.67534" lon="-1.80951">
        <ele>34</ele>
        <time>2018-03-22T01:29:05Z</time>
      </trkpt>
      <trkpt lat="46.67568" lon="-1.80782">
        <ele>36</ele>
        <time>2018-03-22T01:30:05Z</time>
      </trkpt>
      <trkpt lat="46.67571" lon="-1.80487">
        <ele>37</ele>
        <time>2018-03-22T01:31:05Z</time>
      </trkpt>
      <trkpt lat="46.67567" lon="-1.80309">
        <ele>37</ele>
        <time>2018-03-22T01:32:05Z</time>
      </trkpt>
      <trkpt lat="46.67549" lon="-1.80167">
        <ele>37</ele>
        <time>2018-03-22T01:33:05Z</time>
      </trkpt>
      <trkpt lat="46.67548" lon="-1.80079">
        <ele>38</ele>
        <time>2018-03-22T01:34:05Z</time>
      </trkpt>
      <trkpt lat="46.6756" lon="-1.7996">
        <ele>40</ele>
        <time>2018-03-22T01:35:05Z</time>
      </trkpt>
      <trkpt lat="46.67595" lon="-1.79847">
        <ele>42</ele>
        <time>2018-03-22T01:36:05Z</time>
      </trkpt>
      <trkpt lat="46.67606" lon="-1.79702">
        <ele>41</ele>
        <time>2018-03-22T01:37:05Z</time>
      </trkpt>
      <trkpt lat="46.67629" lon="-1.79606">
        <ele>40</ele>
        <time>2018-03-22T01:38:05Z</time>
      </trkpt>
      <trkpt lat="46.67631" lon="-1.79558">
        <ele>40</ele>
        <time>2018-03-22T01:39:05Z</time>
      </trkpt>
      <trkpt lat="46.67623" lon="-1.79493">
        <ele>40</ele>
        <time>2018-03-22T01:40:05Z</time>
      </trkpt>
      <trkpt lat="46.67585" lon="-1.79399">
        <ele>41</ele>
        <time>2018-03-22T01:41:05Z</time>
      </trkpt>
      <trkpt lat="46.67578" lon="-1.79326">
        <ele>42</ele>
        <time>2018-03-22T01:42:05Z</time>
      </trkpt>
      <trkpt lat="46.67573" lon="-1.79109">
        <ele>42</ele>
        <time>2018-03-22T01:43:05Z</time>
      </trkpt>
      <trkpt lat="46.67551" lon="-1.78947">
        <ele>38</ele>
        <time>2018-03-22T01:44:05Z</time>
      </trkpt>
      <trkpt lat="46.67544" lon="-1.78914">
        <ele>37</ele>
        <time>2018-03-22T01:45:05Z</time>
      </trkpt>
      <trkpt lat="46.67472" lon="-1.78624">
        <ele>35</ele>
        <time>2018-03-22T01:46:05Z</time>
      </trkpt>
      <trkpt lat="46.67456" lon="-1.78575">
        <ele>36</ele>
        <time>2018-03-22T01:47:05Z</time>
      </trkpt>
      <trkpt lat="46.67432" lon="-1.78527">
        <ele>36</ele>
        <time>2018-03-22T01:48:05Z</time>
      </trkpt>
      <trkpt lat="46.67392" lon="-1.78436">
        <ele>37</ele>
        <time>2018-03-22T01:49:05Z</time>
      </trkpt>
      <trkpt lat="46.6737" lon="-1.78381">
        <ele>37</ele>
        <time>2018-03-22T01:50:05Z</time>
      </trkpt>
      <trkpt lat="46.67355" lon="-1.78332">
        <ele>37</ele>
        <time>2018-03-22T01:51:05Z</time>
      </trkpt>
      <trkpt lat="46.67343" lon="-1.78307">
        <ele>37</ele>
        <time>2018-03-22T01:52:05Z</time>
      </trkpt>
      <trkpt lat="46.67334" lon="-1.78296">
        <ele>36</ele>
        <time>2018-03-22T01:53:05Z</time>
      </trkpt>
      <trkpt lat="46.67321" lon="-1.78286">
        <ele>37</ele>
        <time>2018-03-22T01:54:05Z</time>
      </trkpt>
      <trkpt lat="46.67198" lon="-1.78225">
        <ele>38</ele>
        <time>2018-03-22T01:55:05Z</time>
      </trkpt>
      <trkpt lat="46.67186" lon="-1.78214">
        <ele>39</ele>
        <time>2018-03-22T01:56:05Z</time>
      </trkpt>
      <trkpt lat="46.67171" lon="-1.78155">
        <ele>40</ele>
        <time>2018-03-22T01:57:05Z</time>
      </trkpt>
      <trkpt lat="46.67163" lon="-1.78119">
        <ele>41</ele>
        <time>2018-03-22T01:58:05Z</time>
      </trkpt>
      <trkpt lat="46.67151" lon="-1.77963">
        <ele>42</ele>
        <time>2018-03-22T01:59:05Z</time>
      </trkpt>
      <trkpt lat="46.67143" lon="-1.77934">
        <ele>42</ele>
        <time>2018-03-22T02:00:05Z</time>
      </trkpt>
      <trkpt lat="46.66957" lon="-1.77549">
        <ele>46</ele>
        <time>2018-03-22T02:01:05Z</time>
      </trkpt>
      <trkpt lat="46.66956" lon="-1.77512">
        <ele>47</ele>
        <time>2018-03-22T02:02:05Z</time>
      </trkpt>
      <trkpt lat="46.67007" lon="-1.77313">
        <ele>48</ele>
        <time>2018-03-22T02:03:05Z</time>
      </trkpt>
      <trkpt lat="46.6704" lon="-1.77136">
        <ele>50</ele>
        <time>2018-03-22T02:04:05Z</time>
      </trkpt>
      <trkpt lat="46.67066" lon="-1.76949">
        <ele>52</ele>
        <time>2018-03-22T02:05:05Z</time>
      </trkpt>
      <trkpt lat="46.67111" lon="-1.76733">
        <ele>52</ele>
        <time>2018-03-22T02:06:05Z</time>
      </trkpt>
      <trkpt lat="46.67124" lon="-1.76584">
        <ele>50</ele>
        <time>2018-03-22T02:07:05Z</time>
      </trkpt>
      <trkpt lat="46.67183" lon="-1.76373">
        <ele>51</ele>
        <time>2018-03-22T02:08:05Z</time>
      </trkpt>
      <trkpt lat="46.67227" lon="-1.76279">
        <ele>51</ele>
        <time>2018-03-22T02:09:05Z</time>
      </trkpt>
      <trkpt lat="46.67254" lon="-1.76216">
        <ele>51</ele>
        <time>2018-03-22T02:10:05Z</time>
      </trkpt>
      <trkpt lat="46.67266" lon="-1.76182">
        <ele>52</ele>
        <time>2018-03-22T02:11:05Z</time>
      </trkpt>
      <trkpt lat="46.67273" lon="-1.76149">
        <ele>52</ele>
        <time>2018-03-22T02:12:05Z</time>
      </trkpt>
      <trkpt lat="46.67288" lon="-1.76021">
        <ele>52</ele>
        <time>2018-03-22T02:13:05Z</time>
      </trkpt>
      <trkpt lat="46.67301" lon="-1.75881">
        <ele>52</ele>
        <time>2018-03-22T02:14:05Z</time>
      </trkpt>
      <trkpt lat="46.67301" lon="-1.75842">
        <ele>52</ele>
        <time>2018-03-22T02:15:05Z</time>
      </trkpt>
      <trkpt lat="46.67299" lon="-1.75818">
        <ele>52</ele>
        <time>2018-03-22T02:16:05Z</time>
      </trkpt>
      <trkpt lat="46.67285" lon="-1.75755">
        <ele>52</ele>
        <time>2018-03-22T02:17:05Z</time>
      </trkpt>
      <trkpt lat="46.67249" lon="-1.75506">
        <ele>51</ele>
        <time>2018-03-22T02:18:05Z</time>
      </trkpt>
      <trkpt lat="46.67225" lon="-1.75398">
        <ele>51</ele>
        <time>2018-03-22T02:19:05Z</time>
      </trkpt>
      <trkpt lat="46.67223" lon="-1.75379">
        <ele>52</ele>
        <time>2018-03-22T02:20:05Z</time>
      </trkpt>
      <trkpt lat="46.67225" lon="-1.7522">
        <ele>54</ele>
        <time>2018-03-22T02:21:05Z</time>
      </trkpt>
      <trkpt lat="46.67228" lon="-1.75197">
        <ele>54</ele>
        <time>2018-03-22T02:22:05Z</time>
      </trkpt>
      <trkpt lat="46.67233" lon="-1.75182">
        <ele>54</ele>
        <time>2018-03-22T02:23:05Z</time>
      </trkpt>
      <trkpt lat="46.67281" lon="-1.75106">
        <ele>54</ele>
        <time>2018-03-22T02:24:05Z</time>
      </trkpt>
      <trkpt lat="46.67305" lon="-1.75057">
        <ele>55</ele>
        <time>2018-03-22T02:25:05Z</time>
      </trkpt>
      <trkpt lat="46.6732" lon="-1.74998">
        <ele>56</ele>
        <time>2018-03-22T02:26:05Z</time>
      </trkpt>
      <trkpt lat="46.67335" lon="-1.74959">
        <ele>56</ele>
        <time>2018-03-22T02:27:05Z</time>
      </trkpt>
      <trkpt lat="46.67346" lon="-1.74905">
        <ele>56</ele>
        <time>2018-03-22T02:28:05Z</time>
      </trkpt>
      <trkpt lat="46.67394" lon="-1.74797">
        <ele>56</ele>
        <time>2018-03-22T02:29:05Z</time>
      </trkpt>
      <trkpt lat="46.6744" lon="-1.74713">
        <ele>57</ele>
        <time>2018-03-22T02:30:05Z</time>
      </trkpt>
      <trkpt lat="46.67487" lon="-1.74622">
        <ele>58</ele>
        <time>2018-03-22T02:31:05Z</time>
      </trkpt>
      <trkpt lat="46.67509" lon="-1.7456">
        <ele>57</ele>
        <time>2018-03-22T02:32:05Z</time>
      </trkpt>
      <trkpt lat="46.67534" lon="-1.74477">
        <ele>56</ele>
        <time>2018-03-22T02:33:05Z</time>
      </trkpt>
      <trkpt lat="46.67543" lon="-1.74417">
        <ele>56</ele>
        <time>2018-03-22T02:34:05Z</time>
      </trkpt>
      <trkpt lat="46.6755" lon="-1.74333">
        <ele>55</ele>
        <time>2018-03-22T02:35:05Z</time>
      </trkpt>
      <trkpt lat="46.67549" lon="-1.74215">
        <ele>56</ele>
        <time>2018-03-22T02:36:05Z</time>
      </trkpt>
      <trkpt lat="46.67559" lon="-1.74042">
        <ele>56</ele>
        <time>2018-03-22T02:37:05Z</time>
      </trkpt>
      <trkpt lat="46.67582" lon="-1.73929">
        <ele>57</ele>
        <time>2018-03-22T02:38:05Z</time>
      </trkpt>
      <trkpt lat="46.67631" lon="-1.73746">
        <ele>56</ele>
        <time>2018-03-22T02:39:05Z</time>
      </trkpt>
      <trkpt lat="46.67662" lon="-1.73678">
        <ele>55</ele>
        <time>2018-03-22T02:40:05Z</time>
      </trkpt>
      <trkpt lat="46.67743" lon="-1.73551">
        <ele>56</ele>
        <time>2018-03-22T02:41:05Z</time>
      </trkpt>
      <trkpt lat="46.67788" lon="-1.73455">
        <ele>56</ele>
        <time>2018-03-22T02:42:05Z</time>
      </trkpt>
      <trkpt lat="46.67844" lon="-1.73366">
        <ele>54</ele>
        <time>2018-03-22T02:43:05Z</time>
      </trkpt>
      <trkpt lat="46.6801" lon="-1.73156">
        <ele>57</ele>
        <time>2018-03-22T02:44:05Z</time>
      </trkpt>
      <trkpt lat="46.68259" lon="-1.72637">
        <ele>56</ele>
        <time>2018-03-22T02:45:05Z</time>
      </trkpt>
      <trkpt lat="46.6827" lon="-1.72606">
        <ele>56</ele>
        <time>2018-03-22T02:46:05Z</time>
      </trkpt>
      <trkpt lat="46.6828" lon="-1.72564">
        <ele>57</ele>
        <time>2018-03-22T02:47:05Z</time>
      </trkpt>
      <trkpt lat="46.68265" lon="-1.72552">
        <ele>56</ele>
        <time>2018-03-22T02:48:05Z</time>
      </trkpt>
      <trkpt lat="46.6824" lon="-1.7252">
        <ele>56</ele>
        <time>2018-03-22T02:49:05Z</time>
      </trkpt>
      <trkpt lat="46.68169" lon="-1.72411">
        <ele>54</ele>
        <time>2018-03-22T02:50:05Z</time>
      </trkpt>
      <trkpt lat="46.68158" lon="-1.72386">
        <ele>53</ele>
        <time>2018-03-22T02:51:05Z</time>
      </trkpt>
      <trkpt lat="46.68157" lon="-1.72368">
        <ele>53</ele>
        <time>2018-03-22T02:52:05Z</time>
      </trkpt>
      <trkpt lat="46.68167" lon="-1.72307">
        <ele>52</ele>
        <time>2018-03-22T02:53:05Z</time>
      </trkpt>
      <trkpt lat="46.68167" lon="-1.72307">
        <ele>52</ele>
        <time>2018-03-22T02:54:05Z</time>
      </trkpt>
      <trkpt lat="46.68182" lon="-1.72212">
        <ele>52</ele>
        <time>2018-03-22T02:55:05Z</time>
      </trkpt>
      <trkpt lat="46.68226" lon="-1.71959">
        <ele>54</ele>
        <time>2018-03-22T02:56:05Z</time>
      </trkpt>
      <trkpt lat="46.68248" lon="-1.71932">
        <ele>54</ele>
        <time>2018-03-22T02:57:05Z</time>
      </trkpt>
      <trkpt lat="46.68259" lon="-1.71907">
        <ele>54</ele>
        <time>2018-03-22T02:58:05Z</time>
      </trkpt>
      <trkpt lat="46.68355" lon="-1.71226">
        <ele>53</ele>
        <time>2018-03-22T02:59:05Z</time>
      </trkpt>
      <trkpt lat="46.68364" lon="-1.71149">
        <ele>54</ele>
        <time>2018-03-22T03:00:05Z</time>
      </trkpt>
      <trkpt lat="46.68374" lon="-1.70998">
        <ele>53</ele>
        <time>2018-03-22T03:01:05Z</time>
      </trkpt>
      <trkpt lat="46.6837" lon="-1.70871">
        <ele>51</ele>
        <time>2018-03-22T03:02:05Z</time>
      </trkpt>
      <trkpt lat="46.68347" lon="-1.70765">
        <ele>49</ele>
        <time>2018-03-22T03:03:05Z</time>
      </trkpt>
      <trkpt lat="46.68263" lon="-1.70416">
        <ele>44</ele>
        <time>2018-03-22T03:04:05Z</time>
      </trkpt>
      <trkpt lat="46.68256" lon="-1.70364">
        <ele>42</ele>
        <time>2018-03-22T03:05:05Z</time>
      </trkpt>
      <trkpt lat="46.68254" lon="-1.70319">
        <ele>41</ele>
        <time>2018-03-22T03:06:05Z</time>
      </trkpt>
      <trkpt lat="46.68253" lon="-1.70175">
        <ele>37</ele>
        <time>2018-03-22T03:07:05Z</time>
      </trkpt>
      <trkpt lat="46.68249" lon="-1.70122">
        <ele>36</ele>
        <time>2018-03-22T03:08:05Z</time>
      </trkpt>
      <trkpt lat="46.68238" lon="-1.70074">
        <ele>35</ele>
        <time>2018-03-22T03:09:05Z</time>
      </trkpt>
      <trkpt lat="46.68215" lon="-1.70036">
        <ele>36</ele>
        <time>2018-03-22T03:10:05Z</time>
      </trkpt>
      <trkpt lat="46.68134" lon="-1.69937">
        <ele>36</ele>
        <time>2018-03-22T03:11:05Z</time>
      </trkpt>
      <trkpt lat="46.68121" lon="-1.69912">
        <ele>35</ele>
        <time>2018-03-22T03:12:05Z</time>
      </trkpt>
      <trkpt lat="46.68105" lon="-1.69873">
        <ele>34</ele>
        <time>2018-03-22T03:13:05Z</time>
      </trkpt>
      <trkpt lat="46.68086" lon="-1.69784">
        <ele>31</ele>
        <time>2018-03-22T03:14:05Z</time>
      </trkpt>
      <trkpt lat="46.6807" lon="-1.69695">
        <ele>28</ele>
        <time>2018-03-22T03:15:05Z</time>
      </trkpt>
      <trkpt lat="46.68061" lon="-1.69597">
        <ele>24</ele>
        <time>2018-03-22T03:16:05Z</time>
      </trkpt>
      <trkpt lat="46.68045" lon="-1.69129">
        <ele>26</ele>
        <time>2018-03-22T03:17:05Z</time>
      </trkpt>
      <trkpt lat="46.68067" lon="-1.68943">
        <ele>28</ele>
        <time>2018-03-22T03:18:05Z</time>
      </trkpt>
      <trkpt lat="46.68069" lon="-1.68835">
        <ele>25</ele>
        <time>2018-03-22T03:19:05Z</time>
      </trkpt>
      <trkpt lat="46.68057" lon="-1.68798">
        <ele>23</ele>
        <time>2018-03-22T03:20:05Z</time>
      </trkpt>
      <trkpt lat="46.6789" lon="-1.68716">
        <ele>24</ele>
        <time>2018-03-22T03:21:05Z</time>
      </trkpt>
      <trkpt lat="46.67808" lon="-1.68664">
        <ele>26</ele>
        <time>2018-03-22T03:22:05Z</time>
      </trkpt>
      <trkpt lat="46.67779" lon="-1.68594">
        <ele>27</ele>
        <time>2018-03-22T03:23:05Z</time>
      </trkpt>
      <trkpt lat="46.67709" lon="-1.68209">
        <ele>26</ele>
        <time>2018-03-22T03:24:05Z</time>
      </trkpt>
      <trkpt lat="46.67634" lon="-1.67867">
        <ele>36</ele>
        <time>2018-03-22T03:25:05Z</time>
      </trkpt>
      <trkpt lat="46.67629" lon="-1.67837">
        <ele>36</ele>
        <time>2018-03-22T03:26:05Z</time>
      </trkpt>
      <trkpt lat="46.67621" lon="-1.67805">
        <ele>35</ele>
        <time>2018-03-22T03:27:05Z</time>
      </trkpt>
      <trkpt lat="46.67612" lon="-1.67793">
        <ele>34</ele>
        <time>2018-03-22T03:28:05Z</time>
      </trkpt>
      <trkpt lat="46.676" lon="-1.67786">
        <ele>34</ele>
        <time>2018-03-22T03:29:05Z</time>
      </trkpt>
      <trkpt lat="46.6754" lon="-1.67777">
        <ele>34</ele>
        <time>2018-03-22T03:30:05Z</time>
      </trkpt>
      <trkpt lat="46.67512" lon="-1.67776">
        <ele>35</ele>
        <time>2018-03-22T03:31:05Z</time>
      </trkpt>
      <trkpt lat="46.67501" lon="-1.67757">
        <ele>33</ele>
        <time>2018-03-22T03:32:05Z</time>
      </trkpt>
      <trkpt lat="46.67493" lon="-1.67621">
        <ele>27</ele>
        <time>2018-03-22T03:33:05Z</time>
      </trkpt>
      <trkpt lat="46.67496" lon="-1.67587">
        <ele>27</ele>
        <time>2018-03-22T03:34:05Z</time>
      </trkpt>
      <trkpt lat="46.67514" lon="-1.67471">
        <ele>35</ele>
        <time>2018-03-22T03:35:05Z</time>
      </trkpt>
      <trkpt lat="46.67544" lon="-1.67329">
        <ele>39</ele>
        <time>2018-03-22T03:36:05Z</time>
      </trkpt>
      <trkpt lat="46.67587" lon="-1.67089">
        <ele>42</ele>
        <time>2018-03-22T03:37:05Z</time>
      </trkpt>
      <trkpt lat="46.67605" lon="-1.66922">
        <ele>42</ele>
        <time>2018-03-22T03:38:05Z</time>
      </trkpt>
      <trkpt lat="46.67601" lon="-1.6674">
        <ele>43</ele>
        <time>2018-03-22T03:39:05Z</time>
      </trkpt>
      <trkpt lat="46.67601" lon="-1.6674">
        <ele>43</ele>
        <time>2018-03-22T03:40:05Z</time>
      </trkpt>
      <trkpt lat="46.67556" lon="-1.65754">
        <ele>47</ele>
        <time>2018-03-22T03:41:05Z</time>
      </trkpt>
      <trkpt lat="46.67521" lon="-1.65225">
        <ele>45</ele>
        <time>2018-03-22T03:42:05Z</time>
      </trkpt>
      <trkpt lat="46.67512" lon="-1.65137">
        <ele>46</ele>
        <time>2018-03-22T03:43:05Z</time>
      </trkpt>
      <trkpt lat="46.67499" lon="-1.64962">
        <ele>48</ele>
        <time>2018-03-22T03:44:05Z</time>
      </trkpt>
      <trkpt lat="46.67469" lon="-1.64889">
        <ele>47</ele>
        <time>2018-03-22T03:45:05Z</time>
      </trkpt>
      <trkpt lat="46.67325" lon="-1.64656">
        <ele>41</ele>
        <time>2018-03-22T03:46:05Z</time>
      </trkpt>
      <trkpt lat="46.67278" lon="-1.64536">
        <ele>38</ele>
        <time>2018-03-22T03:47:05Z</time>
      </trkpt>
      <trkpt lat="46.67257" lon="-1.64433">
        <ele>39</ele>
        <time>2018-03-22T03:48:05Z</time>
      </trkpt>
      <trkpt lat="46.67251" lon="-1.6433">
        <ele>41</ele>
        <time>2018-03-22T03:49:05Z</time>
      </trkpt>
      <trkpt lat="46.67273" lon="-1.64187">
        <ele>45</ele>
        <time>2018-03-22T03:50:05Z</time>
      </trkpt>
      <trkpt lat="46.67288" lon="-1.64128">
        <ele>48</ele>
        <time>2018-03-22T03:51:05Z</time>
      </trkpt>
      <trkpt lat="46.67311" lon="-1.64078">
        <ele>52</ele>
        <time>2018-03-22T03:52:05Z</time>
      </trkpt>
      <trkpt lat="46.67386" lon="-1.63942">
        <ele>57</ele>
        <time>2018-03-22T03:53:05Z</time>
      </trkpt>
      <trkpt lat="46.67558" lon="-1.63686">
        <ele>48</ele>
        <time>2018-03-22T03:54:05Z</time>
      </trkpt>
      <trkpt lat="46.6762" lon="-1.63563">
        <ele>43</ele>
        <time>2018-03-22T03:55:05Z</time>
      </trkpt>
      <trkpt lat="46.67668" lon="-1.63455">
        <ele>41</ele>
        <time>2018-03-22T03:56:05Z</time>
      </trkpt>
      <trkpt lat="46.67698" lon="-1.63303">
        <ele>45</ele>
        <time>2018-03-22T03:57:05Z</time>
      </trkpt>
      <trkpt lat="46.67706" lon="-1.63274">
        <ele>45</ele>
        <time>2018-03-22T03:58:05Z</time>
      </trkpt>
      <trkpt lat="46.67713" lon="-1.63236">
        <ele>44</ele>
        <time>2018-03-22T03:59:05Z</time>
      </trkpt>
      <trkpt lat="46.6771" lon="-1.63189">
        <ele>44</ele>
        <time>2018-03-22T04:00:05Z</time>
      </trkpt>
      <trkpt lat="46.67701" lon="-1.63143">
        <ele>44</ele>
        <time>2018-03-22T04:01:05Z</time>
      </trkpt>
      <trkpt lat="46.67673" lon="-1.63066">
        <ele>46</ele>
        <time>2018-03-22T04:02:05Z</time>
      </trkpt>
      <trkpt lat="46.67632" lon="-1.62998">
        <ele>46</ele>
        <time>2018-03-22T04:03:05Z</time>
      </trkpt>
      <trkpt lat="46.67613" lon="-1.62959">
        <ele>45</ele>
        <time>2018-03-22T04:04:05Z</time>
      </trkpt>
      <trkpt lat="46.67605" lon="-1.62925">
        <ele>44</ele>
        <time>2018-03-22T04:05:05Z</time>
      </trkpt>
      <trkpt lat="46.67622" lon="-1.62689">
        <ele>35</ele>
        <time>2018-03-22T04:06:05Z</time>
      </trkpt>
      <trkpt lat="46.67633" lon="-1.62621">
        <ele>38</ele>
        <time>2018-03-22T04:07:05Z</time>
      </trkpt>
      <trkpt lat="46.67655" lon="-1.62527">
        <ele>39</ele>
        <time>2018-03-22T04:08:05Z</time>
      </trkpt>
      <trkpt lat="46.67691" lon="-1.62403">
        <ele>41</ele>
        <time>2018-03-22T04:09:05Z</time>
      </trkpt>
      <trkpt lat="46.677" lon="-1.62325">
        <ele>40</ele>
        <time>2018-03-22T04:10:05Z</time>
      </trkpt>
      <trkpt lat="46.677" lon="-1.62267">
        <ele>39</ele>
        <time>2018-03-22T04:11:05Z</time>
      </trkpt>
      <trkpt lat="46.67692" lon="-1.62204">
        <ele>38</ele>
        <time>2018-03-22T04:12:05Z</time>
      </trkpt>
      <trkpt lat="46.67652" lon="-1.62098">
        <ele>35</ele>
        <time>2018-03-22T04:13:05Z</time>
      </trkpt>
      <trkpt lat="46.67639" lon="-1.62056">
        <ele>35</ele>
        <time>2018-03-22T04:14:05Z</time>
      </trkpt>
      <trkpt lat="46.67613" lon="-1.62039">
        <ele>34</ele>
        <time>2018-03-22T04:15:05Z</time>
      </trkpt>
      <trkpt lat="46.67584" lon="-1.62027">
        <ele>34</ele>
        <time>2018-03-22T04:16:05Z</time>
      </trkpt>
      <trkpt lat="46.67569" lon="-1.6201">
        <ele>36</ele>
        <time>2018-03-22T04:17:05Z</time>
      </trkpt>
      <trkpt lat="46.67556" lon="-1.61951">
        <ele>37</ele>
        <time>2018-03-22T04:18:05Z</time>
      </trkpt>
      <trkpt lat="46.67554" lon="-1.61914">
        <ele>37</ele>
        <time>2018-03-22T04:19:05Z</time>
      </trkpt>
      <trkpt lat="46.6756" lon="-1.61878">
        <ele>38</ele>
        <time>2018-03-22T04:20:05Z</time>
      </trkpt>
      <trkpt lat="46.6759" lon="-1.61815">
        <ele>38</ele>
        <time>2018-03-22T04:21:05Z</time>
      </trkpt>
      <trkpt lat="46.67598" lon="-1.61754">
        <ele>38</ele>
        <time>2018-03-22T04:22:05Z</time>
      </trkpt>
      <trkpt lat="46.67614" lon="-1.61534">
        <ele>36</ele>
        <time>2018-03-22T04:23:05Z</time>
      </trkpt>
      <trkpt lat="46.67615" lon="-1.61475">
        <ele>37</ele>
        <time>2018-03-22T04:24:05Z</time>
      </trkpt>
      <trkpt lat="46.6761" lon="-1.61437">
        <ele>36</ele>
        <time>2018-03-22T04:25:05Z</time>
      </trkpt>
      <trkpt lat="46.67597" lon="-1.61382">
        <ele>36</ele>
        <time>2018-03-22T04:26:05Z</time>
      </trkpt>
      <trkpt lat="46.67597" lon="-1.61372">
        <ele>36</ele>
        <time>2018-03-22T04:27:05Z</time>
      </trkpt>
      <trkpt lat="46.67601" lon="-1.6136">
        <ele>36</ele>
        <time>2018-03-22T04:28:05Z</time>
      </trkpt>
      <trkpt lat="46.67617" lon="-1.6133">
        <ele>38</ele>
        <time>2018-03-22T04:29:05Z</time>
      </trkpt>
      <trkpt lat="46.6762" lon="-1.613">
        <ele>39</ele>
        <time>2018-03-22T04:30:05Z</time>
      </trkpt>
      <trkpt lat="46.67616" lon="-1.61284">
        <ele>39</ele>
        <time>2018-03-22T04:31:05Z</time>
      </trkpt>
      <trkpt lat="46.67607" lon="-1.61267">
        <ele>39</ele>
        <time>2018-03-22T04:32:05Z</time>
      </trkpt>
      <trkpt lat="46.67603" lon="-1.61238">
        <ele>39</ele>
        <time>2018-03-22T04:33:05Z</time>
      </trkpt>
      <trkpt lat="46.67607" lon="-1.61194">
        <ele>42</ele>
        <time>2018-03-22T04:34:05Z</time>
      </trkpt>
      <trkpt lat="46.67618" lon="-1.6115">
        <ele>45</ele>
        <time>2018-03-22T04:35:05Z</time>
      </trkpt>
      <trkpt lat="46.67617" lon="-1.61135">
        <ele>45</ele>
        <time>2018-03-22T04:36:05Z</time>
      </trkpt>
      <trkpt lat="46.67598" lon="-1.61097">
        <ele>46</ele>
        <time>2018-03-22T04:37:05Z</time>
      </trkpt>
      <trkpt lat="46.67594" lon="-1.61093">
        <ele>46</ele>
        <time>2018-03-22T04:38:05Z</time>
      </trkpt>
      <trkpt lat="46.67617" lon="-1.6105">
        <ele>47</ele>
        <time>2018-03-22T04:39:05Z</time>
      </trkpt>
      <trkpt lat="46.67621" lon="-1.61013">
        <ele>46</ele>
        <time>2018-03-22T04:40:05Z</time>
      </trkpt>
      <trkpt lat="46.67629" lon="-1.61003">
        <ele>46</ele>
        <time>2018-03-22T04:41:05Z</time>
      </trkpt>
      <trkpt lat="46.6764" lon="-1.60999">
        <ele>47</ele>
        <time>2018-03-22T04:42:05Z</time>
      </trkpt>
      <trkpt lat="46.67681" lon="-1.61001">
        <ele>49</ele>
        <time>2018-03-22T04:43:05Z</time>
      </trkpt>
      <trkpt lat="46.67685" lon="-1.60937">
        <ele>47</ele>
        <time>2018-03-22T04:44:05Z</time>
      </trkpt>
      <trkpt lat="46.6769" lon="-1.60913">
        <ele>46</ele>
        <time>2018-03-22T04:45:05Z</time>
      </trkpt>
      <trkpt lat="46.67705" lon="-1.60883">
        <ele>46</ele>
        <time>2018-03-22T04:46:05Z</time>
      </trkpt>
      <trkpt lat="46.67718" lon="-1.60844">
        <ele>46</ele>
        <time>2018-03-22T04:47:05Z</time>
      </trkpt>
      <trkpt lat="46.6774" lon="-1.60765">
        <ele>46</ele>
        <time>2018-03-22T04:48:05Z</time>
      </trkpt>
      <trkpt lat="46.67751" lon="-1.60712">
        <ele>45</ele>
        <time>2018-03-22T04:49:05Z</time>
      </trkpt>
      <trkpt lat="46.67772" lon="-1.60526">
        <ele>43</ele>
        <time>2018-03-22T04:50:05Z</time>
      </trkpt>
      <trkpt lat="46.67804" lon="-1.60298">
        <ele>39</ele>
        <time>2018-03-22T04:51:05Z</time>
      </trkpt>
      <trkpt lat="46.67817" lon="-1.60228">
        <ele>39</ele>
        <time>2018-03-22T04:52:05Z</time>
      </trkpt>
      <trkpt lat="46.67835" lon="-1.6017">
        <ele>39</ele>
        <time>2018-03-22T04:53:05Z</time>
      </trkpt>
      <trkpt lat="46.67851" lon="-1.60127">
        <ele>40</ele>
        <time>2018-03-22T04:54:05Z</time>
      </trkpt>
      <trkpt lat="46.67872" lon="-1.60089">
        <ele>41</ele>
        <time>2018-03-22T04:55:05Z</time>
      </trkpt>
      <trkpt lat="46.67902" lon="-1.60047">
        <ele>43</ele>
        <time>2018-03-22T04:56:05Z</time>
      </trkpt>
      <trkpt lat="46.67941" lon="-1.59999">
        <ele>46</ele>
        <time>2018-03-22T04:57:05Z</time>
      </trkpt>
      <trkpt lat="46.67969" lon="-1.59947">
        <ele>48</ele>
        <time>2018-03-22T04:58:05Z</time>
      </trkpt>
      <trkpt lat="46.67996" lon="-1.5989">
        <ele>50</ele>
        <time>2018-03-22T04:59:05Z</time>
      </trkpt>
      <trkpt lat="46.68077" lon="-1.59731">
        <ele>48</ele>
        <time>2018-03-22T05:00:05Z</time>
      </trkpt>
      <trkpt lat="46.68096" lon="-1.59702">
        <ele>48</ele>
        <time>2018-03-22T05:01:05Z</time>
      </trkpt>
      <trkpt lat="46.68113" lon="-1.5967">
        <ele>48</ele>
        <time>2018-03-22T05:02:05Z</time>
      </trkpt>
      <trkpt lat="46.68122" lon="-1.59647">
        <ele>48</ele>
        <time>2018-03-22T05:03:05Z</time>
      </trkpt>
      <trkpt lat="46.68125" lon="-1.59616">
        <ele>48</ele>
        <time>2018-03-22T05:04:05Z</time>
      </trkpt>
      <trkpt lat="46.68119" lon="-1.59584">
        <ele>47</ele>
        <time>2018-03-22T05:05:05Z</time>
      </trkpt>
      <trkpt lat="46.68109" lon="-1.59516">
        <ele>48</ele>
        <time>2018-03-22T05:06:05Z</time>
      </trkpt>
      <trkpt lat="46.68111" lon="-1.59472">
        <ele>50</ele>
        <time>2018-03-22T05:07:05Z</time>
      </trkpt>
      <trkpt lat="46.68114" lon="-1.59447">
        <ele>52</ele>
        <time>2018-03-22T05:08:05Z</time>
      </trkpt>
      <trkpt lat="46.68152" lon="-1.59256">
        <ele>55</ele>
        <time>2018-03-22T05:09:05Z</time>
      </trkpt>
      <trkpt lat="46.68165" lon="-1.59212">
        <ele>55</ele>
        <time>2018-03-22T05:10:05Z</time>
      </trkpt>
      <trkpt lat="46.682" lon="-1.59113">
        <ele>55</ele>
        <time>2018-03-22T05:11:05Z</time>
      </trkpt>
      <trkpt lat="46.68207" lon="-1.59086">
        <ele>56</ele>
        <time>2018-03-22T05:12:05Z</time>
      </trkpt>
      <trkpt lat="46.68209" lon="-1.59057">
        <ele>56</ele>
        <time>2018-03-22T05:13:05Z</time>
      </trkpt>
      <trkpt lat="46.68205" lon="-1.59024">
        <ele>57</ele>
        <time>2018-03-22T05:14:05Z</time>
      </trkpt>
      <trkpt lat="46.68172" lon="-1.5891">
        <ele>60</ele>
        <time>2018-03-22T05:15:05Z</time>
      </trkpt>
      <trkpt lat="46.6816" lon="-1.58855">
        <ele>59</ele>
        <time>2018-03-22T05:16:05Z</time>
      </trkpt>
      <trkpt lat="46.68155" lon="-1.58818">
        <ele>58</ele>
        <time>2018-03-22T05:17:05Z</time>
      </trkpt>
      <trkpt lat="46.68154" lon="-1.58792">
        <ele>58</ele>
        <time>2018-03-22T05:18:05Z</time>
      </trkpt>
      <trkpt lat="46.68161" lon="-1.5873">
        <ele>58</ele>
        <time>2018-03-22T05:19:05Z</time>
      </trkpt>
      <trkpt lat="46.68174" lon="-1.5868">
        <ele>58</ele>
        <time>2018-03-22T05:20:05Z</time>
      </trkpt>
      <trkpt lat="46.68197" lon="-1.5863">
        <ele>58</ele>
        <time>2018-03-22T05:21:05Z</time>
      </trkpt>
      <trkpt lat="46.68277" lon="-1.58482">
        <ele>58</ele>
        <time>2018-03-22T05:22:05Z</time>
      </trkpt>
      <trkpt lat="46.68289" lon="-1.58458">
        <ele>58</ele>
        <time>2018-03-22T05:23:05Z</time>
      </trkpt>
      <trkpt lat="46.68303" lon="-1.58422">
        <ele>57</ele>
        <time>2018-03-22T05:24:05Z</time>
      </trkpt>
      <trkpt lat="46.68309" lon="-1.58391">
        <ele>58</ele>
        <time>2018-03-22T05:25:05Z</time>
      </trkpt>
      <trkpt lat="46.6832" lon="-1.58145">
        <ele>60</ele>
        <time>2018-03-22T05:26:05Z</time>
      </trkpt>
      <trkpt lat="46.68325" lon="-1.58068">
        <ele>59</ele>
        <time>2018-03-22T05:27:05Z</time>
      </trkpt>
      <trkpt lat="46.68337" lon="-1.58006">
        <ele>58</ele>
        <time>2018-03-22T05:28:05Z</time>
      </trkpt>
      <trkpt lat="46.6835" lon="-1.57964">
        <ele>57</ele>
        <time>2018-03-22T05:29:05Z</time>
      </trkpt>
      <trkpt lat="46.68376" lon="-1.57912">
        <ele>56</ele>
        <time>2018-03-22T05:30:05Z</time>
      </trkpt>
      <trkpt lat="46.68406" lon="-1.57837">
        <ele>56</ele>
        <time>2018-03-22T05:31:05Z</time>
      </trkpt>
      <trkpt lat="46.68433" lon="-1.57763">
        <ele>54</ele>
        <time>2018-03-22T05:32:05Z</time>
      </trkpt>
      <trkpt lat="46.68456" lon="-1.57713">
        <ele>53</ele>
        <time>2018-03-22T05:33:05Z</time>
      </trkpt>
      <trkpt lat="46.68467" lon="-1.57686">
        <ele>52</ele>
        <time>2018-03-22T05:34:05Z</time>
      </trkpt>
      <trkpt lat="46.68484" lon="-1.57618">
        <ele>51</ele>
        <time>2018-03-22T05:35:05Z</time>
      </trkpt>
      <trkpt lat="46.68505" lon="-1.57584">
        <ele>51</ele>
        <time>2018-03-22T05:36:05Z</time>
      </trkpt>
      <trkpt lat="46.68562" lon="-1.57513">
        <ele>50</ele>
        <time>2018-03-22T05:37:05Z</time>
      </trkpt>
      <trkpt lat="46.68664" lon="-1.5739">
        <ele>46</ele>
        <time>2018-03-22T05:38:05Z</time>
      </trkpt>
      <trkpt lat="46.68715" lon="-1.57333">
        <ele>46</ele>
        <time>2018-03-22T05:39:05Z</time>
      </trkpt>
      <trkpt lat="46.68765" lon="-1.57296">
        <ele>45</ele>
        <time>2018-03-22T05:40:05Z</time>
      </trkpt>
      <trkpt lat="46.68791" lon="-1.57283">
        <ele>45</ele>
        <time>2018-03-22T05:41:05Z</time>
      </trkpt>
      <trkpt lat="46.68921" lon="-1.57244">
        <ele>45</ele>
        <time>2018-03-22T05:42:05Z</time>
      </trkpt>
      <trkpt lat="46.68959" lon="-1.57221">
        <ele>45</ele>
        <time>2018-03-22T05:43:05Z</time>
      </trkpt>
      <trkpt lat="46.6898" lon="-1.57199">
        <ele>45</ele>
        <time>2018-03-22T05:44:05Z</time>
      </trkpt>
      <trkpt lat="46.6899" lon="-1.57171">
        <ele>44</ele>
        <time>2018-03-22T05:45:05Z</time>
      </trkpt>
      <trkpt lat="46.6899" lon="-1.57139">
        <ele>44</ele>
        <time>2018-03-22T05:46:05Z</time>
      </trkpt>
      <trkpt lat="46.68978" lon="-1.56997">
        <ele>46</ele>
        <time>2018-03-22T05:47:05Z</time>
      </trkpt>
      <trkpt lat="46.6898" lon="-1.56971">
        <ele>46</ele>
        <time>2018-03-22T05:48:05Z</time>
      </trkpt>
      <trkpt lat="46.69011" lon="-1.56853">
        <ele>46</ele>
        <time>2018-03-22T05:49:05Z</time>
      </trkpt>
      <trkpt lat="46.69016" lon="-1.5681">
        <ele>46</ele>
        <time>2018-03-22T05:50:05Z</time>
      </trkpt>
      <trkpt lat="46.69013" lon="-1.5678">
        <ele>45</ele>
        <time>2018-03-22T05:51:05Z</time>
      </trkpt>
      <trkpt lat="46.68995" lon="-1.56694">
        <ele>45</ele>
        <time>2018-03-22T05:52:05Z</time>
      </trkpt>
      <trkpt lat="46.68987" lon="-1.56639">
        <ele>47</ele>
        <time>2018-03-22T05:53:05Z</time>
      </trkpt>
      <trkpt lat="46.68985" lon="-1.56588">
        <ele>48</ele>
        <time>2018-03-22T05:54:05Z</time>
      </trkpt>
      <trkpt lat="46.69016" lon="-1.55951">
        <ele>55</ele>
        <time>2018-03-22T05:55:05Z</time>
      </trkpt>
      <trkpt lat="46.69008" lon="-1.55894">
        <ele>54</ele>
        <time>2018-03-22T05:56:05Z</time>
      </trkpt>
      <trkpt lat="46.68991" lon="-1.55785">
        <ele>53</ele>
        <time>2018-03-22T05:57:05Z</time>
      </trkpt>
      <trkpt lat="46.68986" lon="-1.55625">
        <ele>49</ele>
        <time>2018-03-22T05:58:05Z</time>
      </trkpt>
      <trkpt lat="46.6896" lon="-1.5551">
        <ele>48</ele>
        <time>2018-03-22T05:59:05Z</time>
      </trkpt>
      <trkpt lat="46.6896" lon="-1.5547">
        <ele>48</ele>
        <time>2018-03-22T06:00:05Z</time>
      </trkpt>
      <trkpt lat="46.68984" lon="-1.55324">
        <ele>48</ele>
        <time>2018-03-22T06:01:05Z</time>
      </trkpt>
      <trkpt lat="46.68988" lon="-1.55272">
        <ele>50</ele>
        <time>2018-03-22T06:02:05Z</time>
      </trkpt>
      <trkpt lat="46.68979" lon="-1.5521">
        <ele>50</ele>
        <time>2018-03-22T06:03:05Z</time>
      </trkpt>
      <trkpt lat="46.68964" lon="-1.55156">
        <ele>50</ele>
        <time>2018-03-22T06:04:05Z</time>
      </trkpt>
      <trkpt lat="46.6894" lon="-1.55112">
        <ele>50</ele>
        <time>2018-03-22T06:05:05Z</time>
      </trkpt>
      <trkpt lat="46.68906" lon="-1.55037">
        <ele>49</ele>
        <time>2018-03-22T06:06:05Z</time>
      </trkpt>
      <trkpt lat="46.6889" lon="-1.54983">
        <ele>50</ele>
        <time>2018-03-22T06:07:05Z</time>
      </trkpt>
      <trkpt lat="46.68884" lon="-1.54941">
        <ele>51</ele>
        <time>2018-03-22T06:08:05Z</time>
      </trkpt>
      <trkpt lat="46.68887" lon="-1.549">
        <ele>52</ele>
        <time>2018-03-22T06:09:05Z</time>
      </trkpt>
      <trkpt lat="46.68893" lon="-1.54853">
        <ele>53</ele>
        <time>2018-03-22T06:10:05Z</time>
      </trkpt>
      <trkpt lat="46.68892" lon="-1.54805">
        <ele>54</ele>
        <time>2018-03-22T06:11:05Z</time>
      </trkpt>
      <trkpt lat="46.68883" lon="-1.54734">
        <ele>55</ele>
        <time>2018-03-22T06:12:05Z</time>
      </trkpt>
      <trkpt lat="46.6888" lon="-1.54685">
        <ele>56</ele>
        <time>2018-03-22T06:13:05Z</time>
      </trkpt>
      <trkpt lat="46.68882" lon="-1.54646">
        <ele>56</ele>
        <time>2018-03-22T06:14:05Z</time>
      </trkpt>
      <trkpt lat="46.68888" lon="-1.54595">
        <ele>57</ele>
        <time>2018-03-22T06:15:05Z</time>
      </trkpt>
      <trkpt lat="46.68905" lon="-1.54489">
        <ele>55</ele>
        <time>2018-03-22T06:16:05Z</time>
      </trkpt>
      <trkpt lat="46.68921" lon="-1.54317">
        <ele>52</ele>
        <time>2018-03-22T06:17:05Z</time>
      </trkpt>
      <trkpt lat="46.68923" lon="-1.54224">
        <ele>52</ele>
        <time>2018-03-22T06:18:05Z</time>
      </trkpt>
      <trkpt lat="46.68921" lon="-1.54177">
        <ele>52</ele>
        <time>2018-03-22T06:19:05Z</time>
      </trkpt>
      <trkpt lat="46.68916" lon="-1.54144">
        <ele>52</ele>
        <time>2018-03-22T06:20:05Z</time>
      </trkpt>
      <trkpt lat="46.68895" lon="-1.54083">
        <ele>51</ele>
        <time>2018-03-22T06:21:05Z</time>
      </trkpt>
      <trkpt lat="46.6886" lon="-1.53994">
        <ele>52</ele>
        <time>2018-03-22T06:22:05Z</time>
      </trkpt>
      <trkpt lat="46.68844" lon="-1.53917">
        <ele>54</ele>
        <time>2018-03-22T06:23:05Z</time>
      </trkpt>
      <trkpt lat="46.68825" lon="-1.53829">
        <ele>58</ele>
        <time>2018-03-22T06:24:05Z</time>
      </trkpt>
      <trkpt lat="46.68803" lon="-1.53785">
        <ele>57</ele>
        <time>2018-03-22T06:25:05Z</time>
      </trkpt>
      <trkpt lat="46.68776" lon="-1.53735">
        <ele>57</ele>
        <time>2018-03-22T06:26:05Z</time>
      </trkpt>
      <trkpt lat="46.68753" lon="-1.53644">
        <ele>57</ele>
        <time>2018-03-22T06:27:05Z</time>
      </trkpt>
      <trkpt lat="46.68728" lon="-1.53476">
        <ele>57</ele>
        <time>2018-03-22T06:28:05Z</time>
      </trkpt>
      <trkpt lat="46.68712" lon="-1.5335">
        <ele>56</ele>
        <time>2018-03-22T06:29:05Z</time>
      </trkpt>
      <trkpt lat="46.68694" lon="-1.53266">
        <ele>56</ele>
        <time>2018-03-22T06:30:05Z</time>
      </trkpt>
      <trkpt lat="46.68648" lon="-1.53165">
        <ele>56</ele>
        <time>2018-03-22T06:31:05Z</time>
      </trkpt>
      <trkpt lat="46.68625" lon="-1.53098">
        <ele>56</ele>
        <time>2018-03-22T06:32:05Z</time>
      </trkpt>
      <trkpt lat="46.68611" lon="-1.53002">
        <ele>56</ele>
        <time>2018-03-22T06:33:05Z</time>
      </trkpt>
      <trkpt lat="46.68607" lon="-1.52894">
        <ele>57</ele>
        <time>2018-03-22T06:34:05Z</time>
      </trkpt>
      <trkpt lat="46.68602" lon="-1.52819">
        <ele>56</ele>
        <time>2018-03-22T06:35:05Z</time>
      </trkpt>
      <trkpt lat="46.686" lon="-1.52804">
        <ele>56</ele>
        <time>2018-03-22T06:36:05Z</time>
      </trkpt>
      <trkpt lat="46.68591" lon="-1.5276">
        <ele>56</ele>
        <time>2018-03-22T06:37:05Z</time>
      </trkpt>
      <trkpt lat="46.68579" lon="-1.52722">
        <ele>56</ele>
        <time>2018-03-22T06:38:05Z</time>
      </trkpt>
      <trkpt lat="46.68565" lon="-1.52683">
        <ele>57</ele>
        <time>2018-03-22T06:39:05Z</time>
      </trkpt>
      <trkpt lat="46.68556" lon="-1.52645">
        <ele>57</ele>
        <time>2018-03-22T06:40:05Z</time>
      </trkpt>
      <trkpt lat="46.68548" lon="-1.52566">
        <ele>57</ele>
        <time>2018-03-22T06:41:05Z</time>
      </trkpt>
      <trkpt lat="46.68544" lon="-1.5255">
        <ele>57</ele>
        <time>2018-03-22T06:42:05Z</time>
      </trkpt>
      <trkpt lat="46.68536" lon="-1.52531">
        <ele>57</ele>
        <time>2018-03-22T06:43:05Z</time>
      </trkpt>
      <trkpt lat="46.68506" lon="-1.52478">
        <ele>58</ele>
        <time>2018-03-22T06:44:05Z</time>
      </trkpt>
      <trkpt lat="46.68499" lon="-1.52456">
        <ele>58</ele>
        <time>2018-03-22T06:45:05Z</time>
      </trkpt>
      <trkpt lat="46.68496" lon="-1.5243">
        <ele>59</ele>
        <time>2018-03-22T06:46:05Z</time>
      </trkpt>
      <trkpt lat="46.68497" lon="-1.524">
        <ele>59</ele>
        <time>2018-03-22T06:47:05Z</time>
      </trkpt>
      <trkpt lat="46.68501" lon="-1.52367">
        <ele>60</ele>
        <time>2018-03-22T06:48:05Z</time>
      </trkpt>
      <trkpt lat="46.68523" lon="-1.52238">
        <ele>61</ele>
        <time>2018-03-22T06:49:05Z</time>
      </trkpt>
      <trkpt lat="46.68553" lon="-1.52099">
        <ele>61</ele>
        <time>2018-03-22T06:50:05Z</time>
      </trkpt>
      <trkpt lat="46.68553" lon="-1.52099">
        <ele>61</ele>
        <time>2018-03-22T06:51:05Z</time>
      </trkpt>
      <trkpt lat="46.68579" lon="-1.51985">
        <ele>60</ele>
        <time>2018-03-22T06:52:05Z</time>
      </trkpt>
      <trkpt lat="46.68608" lon="-1.51881">
        <ele>61</ele>
        <time>2018-03-22T06:53:05Z</time>
      </trkpt>
      <trkpt lat="46.68615" lon="-1.51849">
        <ele>61</ele>
        <time>2018-03-22T06:54:05Z</time>
      </trkpt>
      <trkpt lat="46.68617" lon="-1.51747">
        <ele>61</ele>
        <time>2018-03-22T06:55:05Z</time>
      </trkpt>
      <trkpt lat="46.68617" lon="-1.51717">
        <ele>60</ele>
        <time>2018-03-22T06:56:05Z</time>
      </trkpt>
      <trkpt lat="46.68614" lon="-1.51683">
        <ele>60</ele>
        <time>2018-03-22T06:57:05Z</time>
      </trkpt>
      <trkpt lat="46.68603" lon="-1.51608">
        <ele>58</ele>
        <time>2018-03-22T06:58:05Z</time>
      </trkpt>
      <trkpt lat="46.68624" lon="-1.51603">
        <ele>59</ele>
        <time>2018-03-22T06:59:05Z</time>
      </trkpt>
      <trkpt lat="46.68658" lon="-1.51597">
        <ele>61</ele>
        <time>2018-03-22T07:00:05Z</time>
      </trkpt>
      <trkpt lat="46.68773" lon="-1.51559">
        <ele>64</ele>
        <time>2018-03-22T07:01:05Z</time>
      </trkpt>
      <trkpt lat="46.68742" lon="-1.5143">
        <ele>64</ele>
        <time>2018-03-22T07:02:05Z</time>
      </trkpt>
      <trkpt lat="46.6876" lon="-1.51437">
        <ele>65</ele>
        <time>2018-03-22T07:03:05Z</time>
      </trkpt>
      <trkpt lat="46.6878" lon="-1.51439">
        <ele>65</ele>
        <time>2018-03-22T07:04:05Z</time>
      </trkpt>
      <trkpt lat="46.68828" lon="-1.51433">
        <ele>66</ele>
        <time>2018-03-22T07:05:05Z</time>
      </trkpt>
      <trkpt lat="46.68867" lon="-1.51442">
        <ele>66</ele>
        <time>2018-03-22T07:06:05Z</time>
      </trkpt>
      <trkpt lat="46.69043" lon="-1.51527">
        <ele>65</ele>
        <time>2018-03-22T07:07:05Z</time>
      </trkpt>
      <trkpt lat="46.69052" lon="-1.51529">
        <ele>65</ele>
        <time>2018-03-22T07:08:05Z</time>
      </trkpt>
      <trkpt lat="46.69058" lon="-1.51518">
        <ele>65</ele>
        <time>2018-03-22T07:09:05Z</time>
      </trkpt>
      <trkpt lat="46.69066" lon="-1.51515">
        <ele>65</ele>
        <time>2018-03-22T07:10:05Z</time>
      </trkpt>
      <trkpt lat="46.69072" lon="-1.5152">
        <ele>65</ele>
        <time>2018-03-22T07:11:05Z</time>
      </trkpt>
      <trkpt lat="46.69074" lon="-1.51534">
        <ele>65</ele>
        <time>2018-03-22T07:12:05Z</time>
      </trkpt>
      <trkpt lat="46.69272" lon="-1.51568">
        <ele>66</ele>
        <time>2018-03-22T07:13:05Z</time>
      </trkpt>
      <trkpt lat="46.69362" lon="-1.51579">
        <ele>66</ele>
        <time>2018-03-22T07:14:05Z</time>
      </trkpt>
      <trkpt lat="46.69562" lon="-1.51581">
        <ele>65</ele>
        <time>2018-03-22T07:15:05Z</time>
      </trkpt>
      <trkpt lat="46.69598" lon="-1.51584">
        <ele>65</ele>
        <time>2018-03-22T07:16:05Z</time>
      </trkpt>
      <trkpt lat="46.69633" lon="-1.51596">
        <ele>64</ele>
        <time>2018-03-22T07:17:05Z</time>
      </trkpt>
      <trkpt lat="46.69645" lon="-1.51604">
        <ele>63</ele>
        <time>2018-03-22T07:18:05Z</time>
      </trkpt>
      <trkpt lat="46.69677" lon="-1.51636">
        <ele>62</ele>
        <time>2018-03-22T07:19:05Z</time>
      </trkpt>
      <trkpt lat="46.69733" lon="-1.51706">
        <ele>61</ele>
        <time>2018-03-22T07:20:05Z</time>
      </trkpt>
      <trkpt lat="46.69819" lon="-1.51857">
        <ele>62</ele>
        <time>2018-03-22T07:21:05Z</time>
      </trkpt>
      <trkpt lat="46.69884" lon="-1.52011">
        <ele>65</ele>
        <time>2018-03-22T07:22:05Z</time>
      </trkpt>
      <trkpt lat="46.69922" lon="-1.52069">
        <ele>66</ele>
        <time>2018-03-22T07:23:05Z</time>
      </trkpt>
      <trkpt lat="46.69971" lon="-1.52108">
        <ele>64</ele>
        <time>2018-03-22T07:24:05Z</time>
      </trkpt>
      <trkpt lat="46.70015" lon="-1.52103">
        <ele>63</ele>
        <time>2018-03-22T07:25:05Z</time>
      </trkpt>
      <trkpt lat="46.70225" lon="-1.52025">
        <ele>63</ele>
        <time>2018-03-22T07:26:05Z</time>
      </trkpt>
      <trkpt lat="46.70419" lon="-1.51924">
        <ele>68</ele>
        <time>2018-03-22T07:27:05Z</time>
      </trkpt>
      <trkpt lat="46.70525" lon="-1.51865">
        <ele>68</ele>
        <time>2018-03-22T07:28:05Z</time>
      </trkpt>
      <trkpt lat="46.70546" lon="-1.51856">
        <ele>68</ele>
        <time>2018-03-22T07:29:05Z</time>
      </trkpt>
      <trkpt lat="46.70588" lon="-1.51844">
        <ele>68</ele>
        <time>2018-03-22T07:30:05Z</time>
      </trkpt>
      <trkpt lat="46.70656" lon="-1.51831">
        <ele>71</ele>
        <time>2018-03-22T07:31:05Z</time>
      </trkpt>
      <trkpt lat="46.70696" lon="-1.51833">
        <ele>71</ele>
        <time>2018-03-22T07:32:05Z</time>
      </trkpt>
      <trkpt lat="46.70752" lon="-1.51842">
        <ele>71</ele>
        <time>2018-03-22T07:33:05Z</time>
      </trkpt>
      <trkpt lat="46.70805" lon="-1.51842">
        <ele>71</ele>
        <time>2018-03-22T07:34:05Z</time>
      </trkpt>
      <trkpt lat="46.70837" lon="-1.51836">
        <ele>71</ele>
        <time>2018-03-22T07:35:05Z</time>
      </trkpt>
      <trkpt lat="46.7087" lon="-1.51821">
        <ele>70</ele>
        <time>2018-03-22T07:36:05Z</time>
      </trkpt>
      <trkpt lat="46.71046" lon="-1.51719">
        <ele>73</ele>
        <time>2018-03-22T07:37:05Z</time>
      </trkpt>
      <trkpt lat="46.71066" lon="-1.51701">
        <ele>73</ele>
        <time>2018-03-22T07:38:05Z</time>
      </trkpt>
      <trkpt lat="46.71173" lon="-1.51559">
        <ele>72</ele>
        <time>2018-03-22T07:39:05Z</time>
      </trkpt>
      <trkpt lat="46.71196" lon="-1.51539">
        <ele>73</ele>
        <time>2018-03-22T07:40:05Z</time>
      </trkpt>
      <trkpt lat="46.7139" lon="-1.51411">
        <ele>72</ele>
        <time>2018-03-22T07:41:05Z</time>
      </trkpt>
      <trkpt lat="46.71423" lon="-1.51395">
        <ele>72</ele>
        <time>2018-03-22T07:42:05Z</time>
      </trkpt>
      <trkpt lat="46.71467" lon="-1.51385">
        <ele>73</ele>
        <time>2018-03-22T07:43:05Z</time>
      </trkpt>
      <trkpt lat="46.71528" lon="-1.51378">
        <ele>73</ele>
        <time>2018-03-22T07:44:05Z</time>
      </trkpt>
      <trkpt lat="46.71565" lon="-1.51368">
        <ele>74</ele>
        <time>2018-03-22T07:45:05Z</time>
      </trkpt>
      <trkpt lat="46.71606" lon="-1.51348">
        <ele>75</ele>
        <time>2018-03-22T07:46:05Z</time>
      </trkpt>
      <trkpt lat="46.71644" lon="-1.51335">
        <ele>76</ele>
        <time>2018-03-22T07:47:05Z</time>
      </trkpt>
      <trkpt lat="46.71718" lon="-1.51325">
        <ele>77</ele>
        <time>2018-03-22T07:48:05Z</time>
      </trkpt>
      <trkpt lat="46.71921" lon="-1.51309">
        <ele>75</ele>
        <time>2018-03-22T07:49:05Z</time>
      </trkpt>
      <trkpt lat="46.71979" lon="-1.51298">
        <ele>75</ele>
        <time>2018-03-22T07:50:05Z</time>
      </trkpt>
      <trkpt lat="46.72098" lon="-1.51267">
        <ele>74</ele>
        <time>2018-03-22T07:51:05Z</time>
      </trkpt>
      <trkpt lat="46.72138" lon="-1.51244">
        <ele>74</ele>
        <time>2018-03-22T07:52:05Z</time>
      </trkpt>
      <trkpt lat="46.72187" lon="-1.51212">
        <ele>74</ele>
        <time>2018-03-22T07:53:05Z</time>
      </trkpt>
      <trkpt lat="46.72207" lon="-1.51203">
        <ele>75</ele>
        <time>2018-03-22T07:54:05Z</time>
      </trkpt>
      <trkpt lat="46.72329" lon="-1.51177">
        <ele>76</ele>
        <time>2018-03-22T07:55:05Z</time>
      </trkpt>
      <trkpt lat="46.72358" lon="-1.51177">
        <ele>75</ele>
        <time>2018-03-22T07:56:05Z</time>
      </trkpt>
      <trkpt lat="46.72393" lon="-1.51181">
        <ele>75</ele>
        <time>2018-03-22T07:57:05Z</time>
      </trkpt>
      <trkpt lat="46.72397" lon="-1.51174">
        <ele>74</ele>
        <time>2018-03-22T07:58:05Z</time>
      </trkpt>
      <trkpt lat="46.72399" lon="-1.51175">
        <ele>74</ele>
        <time>2018-03-22T07:59:05Z</time>
      </trkpt>
      <trkpt lat="46.72402" lon="-1.51182">
        <ele>74</ele>
        <time>2018-03-22T08:00:05Z</time>
      </trkpt>
      <trkpt lat="46.72497" lon="-1.5118">
        <ele>70</ele>
        <time>2018-03-22T08:01:05Z</time>
      </trkpt>
      <trkpt lat="46.72504" lon="-1.51182">
        <ele>70</ele>
        <time>2018-03-22T08:02:05Z</time>
      </trkpt>
      <trkpt lat="46.72518" lon="-1.51187">
        <ele>70</ele>
        <time>2018-03-22T08:03:05Z</time>
      </trkpt>
      <trkpt lat="46.7253" lon="-1.51198">
        <ele>70</ele>
        <time>2018-03-22T08:04:05Z</time>
      </trkpt>
      <trkpt lat="46.7256" lon="-1.51234">
        <ele>69</ele>
        <time>2018-03-22T08:05:05Z</time>
      </trkpt>
      <trkpt lat="46.7256" lon="-1.51234">
        <ele>69</ele>
        <time>2018-03-22T08:06:05Z</time>
      </trkpt>
      <trkpt lat="46.72637" lon="-1.51326">
        <ele>70</ele>
        <time>2018-03-22T08:07:05Z</time>
      </trkpt>
      <trkpt lat="46.72651" lon="-1.51337">
        <ele>71</ele>
        <time>2018-03-22T08:08:05Z</time>
      </trkpt>
      <trkpt lat="46.72691" lon="-1.51348">
        <ele>71</ele>
        <time>2018-03-22T08:09:05Z</time>
      </trkpt>
      <trkpt lat="46.72755" lon="-1.51276">
        <ele>69</ele>
        <time>2018-03-22T08:10:05Z</time>
      </trkpt>
      <trkpt lat="46.72764" lon="-1.51263">
        <ele>69</ele>
        <time>2018-03-22T08:11:05Z</time>
      </trkpt>
      <trkpt lat="46.72764" lon="-1.51257">
        <ele>69</ele>
        <time>2018-03-22T08:12:05Z</time>
      </trkpt>
      <trkpt lat="46.72766" lon="-1.51256">
        <ele>68</ele>
        <time>2018-03-22T08:13:05Z</time>
      </trkpt>
      <trkpt lat="46.72769" lon="-1.51258">
        <ele>68</ele>
        <time>2018-03-22T08:14:05Z</time>
      </trkpt>
      <trkpt lat="46.72808" lon="-1.51215">
        <ele>66</ele>
        <time>2018-03-22T08:15:05Z</time>
      </trkpt>
      <trkpt lat="46.72861" lon="-1.51151">
        <ele>65</ele>
        <time>2018-03-22T08:16:05Z</time>
      </trkpt>
      <trkpt lat="46.72873" lon="-1.51121">
        <ele>65</ele>
        <time>2018-03-22T08:17:05Z</time>
      </trkpt>
      <trkpt lat="46.72869" lon="-1.51112">
        <ele>65</ele>
        <time>2018-03-22T08:18:05Z</time>
      </trkpt>
      <trkpt lat="46.72872" lon="-1.51102">
        <ele>65</ele>
        <time>2018-03-22T08:19:05Z</time>
      </trkpt>
      <trkpt lat="46.72874" lon="-1.51101">
        <ele>65</ele>
        <time>2018-03-22T08:20:05Z</time>
      </trkpt>
      <trkpt lat="46.72882" lon="-1.51103">
        <ele>65</ele>
        <time>2018-03-22T08:21:05Z</time>
      </trkpt>
      <trkpt lat="46.72884" lon="-1.51113">
        <ele>65</ele>
        <time>2018-03-22T08:22:05Z</time>
      </trkpt>
      <trkpt lat="46.72899" lon="-1.51114">
        <ele>65</ele>
        <time>2018-03-22T08:23:05Z</time>
      </trkpt>
      <trkpt lat="46.72906" lon="-1.5111">
        <ele>65</ele>
        <time>2018-03-22T08:24:05Z</time>
      </trkpt>
      <trkpt lat="46.72979" lon="-1.51058">
        <ele>66</ele>
        <time>2018-03-22T08:25:05Z</time>
      </trkpt>
      <trkpt lat="46.73041" lon="-1.51011">
        <ele>68</ele>
        <time>2018-03-22T08:26:05Z</time>
      </trkpt>
      <trkpt lat="46.73062" lon="-1.50987">
        <ele>68</ele>
        <time>2018-03-22T08:27:05Z</time>
      </trkpt>
      <trkpt lat="46.73109" lon="-1.5094">
        <ele>69</ele>
        <time>2018-03-22T08:28:05Z</time>
      </trkpt>
      <trkpt lat="46.73198" lon="-1.50865">
        <ele>69</ele>
        <time>2018-03-22T08:29:05Z</time>
      </trkpt>
      <trkpt lat="46.73282" lon="-1.50802">
        <ele>67</ele>
        <time>2018-03-22T08:30:05Z</time>
      </trkpt>
      <trkpt lat="46.73397" lon="-1.50722">
        <ele>64</ele>
        <time>2018-03-22T08:31:05Z</time>
      </trkpt>
      <trkpt lat="46.7341" lon="-1.50713">
        <ele>64</ele>
        <time>2018-03-22T08:32:05Z</time>
      </trkpt>
      <trkpt lat="46.73447" lon="-1.50694">
        <ele>63</ele>
        <time>2018-03-22T08:33:05Z</time>
      </trkpt>
      <trkpt lat="46.73472" lon="-1.50687">
        <ele>62</ele>
        <time>2018-03-22T08:34:05Z</time>
      </trkpt>
      <trkpt lat="46.73744" lon="-1.50619">
        <ele>63</ele>
        <time>2018-03-22T08:35:05Z</time>
      </trkpt>
      <trkpt lat="46.73795" lon="-1.50611">
        <ele>62</ele>
        <time>2018-03-22T08:36:05Z</time>
      </trkpt>
      <trkpt lat="46.73866" lon="-1.50609">
        <ele>62</ele>
        <time>2018-03-22T08:37:05Z</time>
      </trkpt>
      <trkpt lat="46.74111" lon="-1.50611">
        <ele>60</ele>
        <time>2018-03-22T08:38:05Z</time>
      </trkpt>
      <trkpt lat="46.7413" lon="-1.50614">
        <ele>59</ele>
        <time>2018-03-22T08:39:05Z</time>
      </trkpt>
      <trkpt lat="46.74156" lon="-1.50622">
        <ele>58</ele>
        <time>2018-03-22T08:40:05Z</time>
      </trkpt>
      <trkpt lat="46.74182" lon="-1.50638">
        <ele>57</ele>
        <time>2018-03-22T08:41:05Z</time>
      </trkpt>
      <trkpt lat="46.74241" lon="-1.50681">
        <ele>56</ele>
        <time>2018-03-22T08:42:05Z</time>
      </trkpt>
      <trkpt lat="46.74256" lon="-1.50688">
        <ele>56</ele>
        <time>2018-03-22T08:43:05Z</time>
      </trkpt>
      <trkpt lat="46.74272" lon="-1.50689">
        <ele>57</ele>
        <time>2018-03-22T08:44:05Z</time>
      </trkpt>
      <trkpt lat="46.74299" lon="-1.50681">
        <ele>58</ele>
        <time>2018-03-22T08:45:05Z</time>
      </trkpt>
      <trkpt lat="46.74407" lon="-1.50602">
        <ele>60</ele>
        <time>2018-03-22T08:46:05Z</time>
      </trkpt>
      <trkpt lat="46.74431" lon="-1.50588">
        <ele>61</ele>
        <time>2018-03-22T08:47:05Z</time>
      </trkpt>
      <trkpt lat="46.74456" lon="-1.5058">
        <ele>61</ele>
        <time>2018-03-22T08:48:05Z</time>
      </trkpt>
      <trkpt lat="46.74493" lon="-1.50583">
        <ele>62</ele>
        <time>2018-03-22T08:49:05Z</time>
      </trkpt>
      <trkpt lat="46.74511" lon="-1.50586">
        <ele>62</ele>
        <time>2018-03-22T08:50:05Z</time>
      </trkpt>
      <trkpt lat="46.74907" lon="-1.50669">
        <ele>71</ele>
        <time>2018-03-22T08:51:05Z</time>
      </trkpt>
      <trkpt lat="46.74941" lon="-1.50675">
        <ele>71</ele>
        <time>2018-03-22T08:52:05Z</time>
      </trkpt>
      <trkpt lat="46.75158" lon="-1.5072">
        <ele>68</ele>
        <time>2018-03-22T08:53:05Z</time>
      </trkpt>
      <trkpt lat="46.75227" lon="-1.50739">
        <ele>64</ele>
        <time>2018-03-22T08:54:05Z</time>
      </trkpt>
      <trkpt lat="46.75274" lon="-1.50764">
        <ele>62</ele>
        <time>2018-03-22T08:55:05Z</time>
      </trkpt>
      <trkpt lat="46.75451" lon="-1.50867">
        <ele>57</ele>
        <time>2018-03-22T08:56:05Z</time>
      </trkpt>
      <trkpt lat="46.75647" lon="-1.50977">
        <ele>53</ele>
        <time>2018-03-22T08:57:05Z</time>
      </trkpt>
      <trkpt lat="46.75865" lon="-1.51046">
        <ele>53</ele>
        <time>2018-03-22T08:58:05Z</time>
      </trkpt>
      <trkpt lat="46.75933" lon="-1.51054">
        <ele>54</ele>
        <time>2018-03-22T08:59:05Z</time>
      </trkpt>
      <trkpt lat="46.75933" lon="-1.51054">
        <ele>54</ele>
        <time>2018-03-22T09:00:05Z</time>
      </trkpt>
      <trkpt lat="46.75955" lon="-1.51062">
        <ele>55</ele>
        <time>2018-03-22T09:01:05Z</time>
      </trkpt>
      <trkpt lat="46.75994" lon="-1.51083">
        <ele>57</ele>
        <time>2018-03-22T09:02:05Z</time>
      </trkpt>
      <trkpt lat="46.75996" lon="-1.51077">
        <ele>57</ele>
        <time>2018-03-22T09:03:05Z</time>
      </trkpt>
      <trkpt lat="46.76003" lon="-1.51068">
        <ele>56</ele>
        <time>2018-03-22T09:04:05Z</time>
      </trkpt>
      <trkpt lat="46.76012" lon="-1.51064">
        <ele>55</ele>
        <time>2018-03-22T09:05:05Z</time>
      </trkpt>
      <trkpt lat="46.76017" lon="-1.51065">
        <ele>55</ele>
        <time>2018-03-22T09:06:05Z</time>
      </trkpt>
      <trkpt lat="46.76022" lon="-1.51067">
        <ele>55</ele>
        <time>2018-03-22T09:07:05Z</time>
      </trkpt>
      <trkpt lat="46.7603" lon="-1.51076">
        <ele>55</ele>
        <time>2018-03-22T09:08:05Z</time>
      </trkpt>
      <trkpt lat="46.76033" lon="-1.5109">
        <ele>56</ele>
        <time>2018-03-22T09:09:05Z</time>
      </trkpt>
      <trkpt lat="46.76063" lon="-1.51075">
        <ele>54</ele>
        <time>2018-03-22T09:10:05Z</time>
      </trkpt>
      <trkpt lat="46.76076" lon="-1.51063">
        <ele>52</ele>
        <time>2018-03-22T09:11:05Z</time>
      </trkpt>
      <trkpt lat="46.76101" lon="-1.51031">
        <ele>50</ele>
        <time>2018-03-22T09:12:05Z</time>
      </trkpt>
      <trkpt lat="46.76112" lon="-1.51023">
        <ele>48</ele>
        <time>2018-03-22T09:13:05Z</time>
      </trkpt>
      <trkpt lat="46.76124" lon="-1.51017">
        <ele>47</ele>
        <time>2018-03-22T09:14:05Z</time>
      </trkpt>
      <trkpt lat="46.7625" lon="-1.50986">
        <ele>44</ele>
        <time>2018-03-22T09:15:05Z</time>
      </trkpt>
      <trkpt lat="46.76383" lon="-1.50957">
        <ele>44</ele>
        <time>2018-03-22T09:16:05Z</time>
      </trkpt>
      <trkpt lat="46.76395" lon="-1.50956">
        <ele>43</ele>
        <time>2018-03-22T09:17:05Z</time>
      </trkpt>
      <trkpt lat="46.76424" lon="-1.5096">
        <ele>43</ele>
        <time>2018-03-22T09:18:05Z</time>
      </trkpt>
      <trkpt lat="46.76454" lon="-1.50972">
        <ele>44</ele>
        <time>2018-03-22T09:19:05Z</time>
      </trkpt>
      <trkpt lat="46.76483" lon="-1.50998">
        <ele>43</ele>
        <time>2018-03-22T09:20:05Z</time>
      </trkpt>
      <trkpt lat="46.76536" lon="-1.51059">
        <ele>45</ele>
        <time>2018-03-22T09:21:05Z</time>
      </trkpt>
      <trkpt lat="46.7655" lon="-1.51066">
        <ele>45</ele>
        <time>2018-03-22T09:22:05Z</time>
      </trkpt>
      <trkpt lat="46.76603" lon="-1.51074">
        <ele>43</ele>
        <time>2018-03-22T09:23:05Z</time>
      </trkpt>
      <trkpt lat="46.76618" lon="-1.51072">
        <ele>42</ele>
        <time>2018-03-22T09:24:05Z</time>
      </trkpt>
      <trkpt lat="46.76706" lon="-1.51038">
        <ele>45</ele>
        <time>2018-03-22T09:25:05Z</time>
      </trkpt>
      <trkpt lat="46.76746" lon="-1.51025">
        <ele>48</ele>
        <time>2018-03-22T09:26:05Z</time>
      </trkpt>
      <trkpt lat="46.76746" lon="-1.51025">
        <ele>48</ele>
        <time>2018-03-22T09:27:05Z</time>
      </trkpt>
      <trkpt lat="46.76763" lon="-1.51019">
        <ele>50</ele>
        <time>2018-03-22T09:28:05Z</time>
      </trkpt>
      <trkpt lat="46.76779" lon="-1.5102">
        <ele>51</ele>
        <time>2018-03-22T09:29:05Z</time>
      </trkpt>
      <trkpt lat="46.7676" lon="-1.51062">
        <ele>46</ele>
        <time>2018-03-22T09:30:05Z</time>
      </trkpt>
      <trkpt lat="46.76719" lon="-1.51208">
        <ele>41</ele>
        <time>2018-03-22T09:31:05Z</time>
      </trkpt>
      <trkpt lat="46.76677" lon="-1.51414">
        <ele>45</ele>
        <time>2018-03-22T09:32:05Z</time>
      </trkpt>
      <trkpt lat="46.76653" lon="-1.51544">
        <ele>48</ele>
        <time>2018-03-22T09:33:05Z</time>
      </trkpt>
      <trkpt lat="46.76635" lon="-1.51715">
        <ele>50</ele>
        <time>2018-03-22T09:34:05Z</time>
      </trkpt>
      <trkpt lat="46.76627" lon="-1.5175">
        <ele>50</ele>
        <time>2018-03-22T09:35:05Z</time>
      </trkpt>
      <trkpt lat="46.76624" lon="-1.51771">
        <ele>50</ele>
        <time>2018-03-22T09:36:05Z</time>
      </trkpt>
      <trkpt lat="46.76622" lon="-1.51813">
        <ele>50</ele>
        <time>2018-03-22T09:37:05Z</time>
      </trkpt>
      <trkpt lat="46.76622" lon="-1.51813">
        <ele>50</ele>
        <time>2018-03-22T09:38:05Z</time>
      </trkpt>
      <trkpt lat="46.76622" lon="-1.51865">
        <ele>50</ele>
        <time>2018-03-22T09:39:05Z</time>
      </trkpt>
      <trkpt lat="46.76612" lon="-1.5191">
        <ele>51</ele>
        <time>2018-03-22T09:40:05Z</time>
      </trkpt>
      <trkpt lat="46.76593" lon="-1.51966">
        <ele>53</ele>
        <time>2018-03-22T09:41:05Z</time>
      </trkpt>
      <trkpt lat="46.76575" lon="-1.52058">
        <ele>55</ele>
        <time>2018-03-22T09:42:05Z</time>
      </trkpt>
      <trkpt lat="46.76555" lon="-1.52182">
        <ele>59</ele>
        <time>2018-03-22T09:43:05Z</time>
      </trkpt>
      <trkpt lat="46.76543" lon="-1.52222">
        <ele>60</ele>
        <time>2018-03-22T09:44:05Z</time>
      </trkpt>
      <trkpt lat="46.76529" lon="-1.5226">
        <ele>61</ele>
        <time>2018-03-22T09:45:05Z</time>
      </trkpt>
      <trkpt lat="46.76507" lon="-1.52305">
        <ele>61</ele>
        <time>2018-03-22T09:46:05Z</time>
      </trkpt>
      <trkpt lat="46.76413" lon="-1.52479">
        <ele>57</ele>
        <time>2018-03-22T09:47:05Z</time>
      </trkpt>
      <trkpt lat="46.76365" lon="-1.52611">
        <ele>56</ele>
        <time>2018-03-22T09:48:05Z</time>
      </trkpt>
      <trkpt lat="46.76304" lon="-1.52689">
        <ele>57</ele>
        <time>2018-03-22T09:49:05Z</time>
      </trkpt>
      <trkpt lat="46.76294" lon="-1.52709">
        <ele>57</ele>
        <time>2018-03-22T09:50:05Z</time>
      </trkpt>
      <trkpt lat="46.76267" lon="-1.52791">
        <ele>58</ele>
        <time>2018-03-22T09:51:05Z</time>
      </trkpt>
      <trkpt lat="46.76255" lon="-1.52821">
        <ele>59</ele>
        <time>2018-03-22T09:52:05Z</time>
      </trkpt>
      <trkpt lat="46.76241" lon="-1.52847">
        <ele>59</ele>
        <time>2018-03-22T09:53:05Z</time>
      </trkpt>
      <trkpt lat="46.7612" lon="-1.53021">
        <ele>63</ele>
        <time>2018-03-22T09:54:05Z</time>
      </trkpt>
      <trkpt lat="46.76028" lon="-1.53214">
        <ele>66</ele>
        <time>2018-03-22T09:55:05Z</time>
      </trkpt>
      <trkpt lat="46.76005" lon="-1.53258">
        <ele>65</ele>
        <time>2018-03-22T09:56:05Z</time>
      </trkpt>
      <trkpt lat="46.75981" lon="-1.53297">
        <ele>65</ele>
        <time>2018-03-22T09:57:05Z</time>
      </trkpt>
      <trkpt lat="46.75956" lon="-1.53333">
        <ele>66</ele>
        <time>2018-03-22T09:58:05Z</time>
      </trkpt>
      <trkpt lat="46.75959" lon="-1.53344">
        <ele>66</ele>
        <time>2018-03-22T09:59:05Z</time>
      </trkpt>
      <trkpt lat="46.7596" lon="-1.53355">
        <ele>66</ele>
        <time>2018-03-22T10:00:05Z</time>
      </trkpt>
      <trkpt lat="46.75957" lon="-1.53367">
        <ele>65</ele>
        <time>2018-03-22T10:01:05Z</time>
      </trkpt>
      <trkpt lat="46.7595" lon="-1.53377">
        <ele>65</ele>
        <time>2018-03-22T10:02:05Z</time>
      </trkpt>
      <trkpt lat="46.7594" lon="-1.53381">
        <ele>66</ele>
        <time>2018-03-22T10:03:05Z</time>
      </trkpt>
      <trkpt lat="46.75946" lon="-1.53458">
        <ele>65</ele>
        <time>2018-03-22T10:04:05Z</time>
      </trkpt>
      <trkpt lat="46.75944" lon="-1.53502">
        <ele>65</ele>
        <time>2018-03-22T10:05:05Z</time>
      </trkpt>
      <trkpt lat="46.75905" lon="-1.53783">
        <ele>68</ele>
        <time>2018-03-22T10:06:05Z</time>
      </trkpt>
      <trkpt lat="46.75887" lon="-1.53926">
        <ele>69</ele>
        <time>2018-03-22T10:07:05Z</time>
      </trkpt>
      <trkpt lat="46.75873" lon="-1.53988">
        <ele>69</ele>
        <time>2018-03-22T10:08:05Z</time>
      </trkpt>
      <trkpt lat="46.75814" lon="-1.54144">
        <ele>68</ele>
        <time>2018-03-22T10:09:05Z</time>
      </trkpt>
      <trkpt lat="46.75663" lon="-1.54555">
        <ele>64</ele>
        <time>2018-03-22T10:10:05Z</time>
      </trkpt>
      <trkpt lat="46.75609" lon="-1.54699">
        <ele>62</ele>
        <time>2018-03-22T10:11:05Z</time>
      </trkpt>
      <trkpt lat="46.75489" lon="-1.54913">
        <ele>57</ele>
        <time>2018-03-22T10:12:05Z</time>
      </trkpt>
      <trkpt lat="46.753" lon="-1.55261">
        <ele>62</ele>
        <time>2018-03-22T10:13:05Z</time>
      </trkpt>
      <trkpt lat="46.74662" lon="-1.56391">
        <ele>67</ele>
        <time>2018-03-22T10:14:05Z</time>
      </trkpt>
      <trkpt lat="46.74634" lon="-1.56449">
        <ele>67</ele>
        <time>2018-03-22T10:15:05Z</time>
      </trkpt>
      <trkpt lat="46.74515" lon="-1.5666">
        <ele>65</ele>
        <time>2018-03-22T10:16:05Z</time>
      </trkpt>
      <trkpt lat="46.74495" lon="-1.56698">
        <ele>65</ele>
        <time>2018-03-22T10:17:05Z</time>
      </trkpt>
      <trkpt lat="46.74482" lon="-1.56729">
        <ele>65</ele>
        <time>2018-03-22T10:18:05Z</time>
      </trkpt>
      <trkpt lat="46.74467" lon="-1.56767">
        <ele>64</ele>
        <time>2018-03-22T10:19:05Z</time>
      </trkpt>
      <trkpt lat="46.74448" lon="-1.56824">
        <ele>63</ele>
        <time>2018-03-22T10:20:05Z</time>
      </trkpt>
      <trkpt lat="46.74437" lon="-1.56868">
        <ele>64</ele>
        <time>2018-03-22T10:21:05Z</time>
      </trkpt>
      <trkpt lat="46.74418" lon="-1.56965">
        <ele>65</ele>
        <time>2018-03-22T10:22:05Z</time>
      </trkpt>
      <trkpt lat="46.74412" lon="-1.57001">
        <ele>66</ele>
        <time>2018-03-22T10:23:05Z</time>
      </trkpt>
      <trkpt lat="46.74408" lon="-1.57037">
        <ele>67</ele>
        <time>2018-03-22T10:24:05Z</time>
      </trkpt>
      <trkpt lat="46.74407" lon="-1.57071">
        <ele>68</ele>
        <time>2018-03-22T10:25:05Z</time>
      </trkpt>
      <trkpt lat="46.74408" lon="-1.57108">
        <ele>69</ele>
        <time>2018-03-22T10:26:05Z</time>
      </trkpt>
      <trkpt lat="46.74415" lon="-1.57241">
        <ele>69</ele>
        <time>2018-03-22T10:27:05Z</time>
      </trkpt>
      <trkpt lat="46.74428" lon="-1.57388">
        <ele>69</ele>
        <time>2018-03-22T10:28:05Z</time>
      </trkpt>
      <trkpt lat="46.74435" lon="-1.57446">
        <ele>69</ele>
        <time>2018-03-22T10:29:05Z</time>
      </trkpt>
      <trkpt lat="46.74441" lon="-1.57552">
        <ele>70</ele>
        <time>2018-03-22T10:30:05Z</time>
      </trkpt>
      <trkpt lat="46.74444" lon="-1.57655">
        <ele>71</ele>
        <time>2018-03-22T10:31:05Z</time>
      </trkpt>
      <trkpt lat="46.74437" lon="-1.5771">
        <ele>71</ele>
        <time>2018-03-22T10:32:05Z</time>
      </trkpt>
      <trkpt lat="46.74355" lon="-1.58122">
        <ele>73</ele>
        <time>2018-03-22T10:33:05Z</time>
      </trkpt>
      <trkpt lat="46.74343" lon="-1.58202">
        <ele>74</ele>
        <time>2018-03-22T10:34:05Z</time>
      </trkpt>
      <trkpt lat="46.74324" lon="-1.58318">
        <ele>75</ele>
        <time>2018-03-22T10:35:05Z</time>
      </trkpt>
      <trkpt lat="46.74298" lon="-1.58411">
        <ele>75</ele>
        <time>2018-03-22T10:36:05Z</time>
      </trkpt>
      <trkpt lat="46.74284" lon="-1.58455">
        <ele>75</ele>
        <time>2018-03-22T10:37:05Z</time>
      </trkpt>
      <trkpt lat="46.74261" lon="-1.58508">
        <ele>74</ele>
        <time>2018-03-22T10:38:05Z</time>
      </trkpt>
      <trkpt lat="46.74177" lon="-1.58663">
        <ele>75</ele>
        <time>2018-03-22T10:39:05Z</time>
      </trkpt>
      <trkpt lat="46.74063" lon="-1.58882">
        <ele>77</ele>
        <time>2018-03-22T10:40:05Z</time>
      </trkpt>
      <trkpt lat="46.74047" lon="-1.58919">
        <ele>78</ele>
        <time>2018-03-22T10:41:05Z</time>
      </trkpt>
      <trkpt lat="46.74037" lon="-1.58954">
        <ele>77</ele>
        <time>2018-03-22T10:42:05Z</time>
      </trkpt>
      <trkpt lat="46.74032" lon="-1.58976">
        <ele>76</ele>
        <time>2018-03-22T10:43:05Z</time>
      </trkpt>
      <trkpt lat="46.74027" lon="-1.59007">
        <ele>76</ele>
        <time>2018-03-22T10:44:05Z</time>
      </trkpt>
      <trkpt lat="46.74025" lon="-1.59051">
        <ele>75</ele>
        <time>2018-03-22T10:45:05Z</time>
      </trkpt>
      <trkpt lat="46.74029" lon="-1.59166">
        <ele>72</ele>
        <time>2018-03-22T10:46:05Z</time>
      </trkpt>
      <trkpt lat="46.74029" lon="-1.59235">
        <ele>71</ele>
        <time>2018-03-22T10:47:05Z</time>
      </trkpt>
      <trkpt lat="46.74026" lon="-1.59266">
        <ele>70</ele>
        <time>2018-03-22T10:48:05Z</time>
      </trkpt>
      <trkpt lat="46.73999" lon="-1.59396">
        <ele>70</ele>
        <time>2018-03-22T10:49:05Z</time>
      </trkpt>
      <trkpt lat="46.73958" lon="-1.59577">
        <ele>71</ele>
        <time>2018-03-22T10:50:05Z</time>
      </trkpt>
      <trkpt lat="46.73952" lon="-1.5962">
        <ele>71</ele>
        <time>2018-03-22T10:51:05Z</time>
      </trkpt>
      <trkpt lat="46.73943" lon="-1.59732">
        <ele>72</ele>
        <time>2018-03-22T10:52:05Z</time>
      </trkpt>
      <trkpt lat="46.73928" lon="-1.59827">
        <ele>71</ele>
        <time>2018-03-22T10:53:05Z</time>
      </trkpt>
      <trkpt lat="46.73924" lon="-1.59861">
        <ele>71</ele>
        <time>2018-03-22T10:54:05Z</time>
      </trkpt>
      <trkpt lat="46.73924" lon="-1.59942">
        <ele>69</ele>
        <time>2018-03-22T10:55:05Z</time>
      </trkpt>
      <trkpt lat="46.7392" lon="-1.60107">
        <ele>67</ele>
        <time>2018-03-22T10:56:05Z</time>
      </trkpt>
      <trkpt lat="46.73925" lon="-1.60172">
        <ele>66</ele>
        <time>2018-03-22T10:57:05Z</time>
      </trkpt>
      <trkpt lat="46.7392" lon="-1.60197">
        <ele>66</ele>
        <time>2018-03-22T10:58:05Z</time>
      </trkpt>
      <trkpt lat="46.73909" lon="-1.60221">
        <ele>65</ele>
        <time>2018-03-22T10:59:05Z</time>
      </trkpt>
      <trkpt lat="46.73852" lon="-1.60287">
        <ele>65</ele>
        <time>2018-03-22T11:00:05Z</time>
      </trkpt>
      <trkpt lat="46.73848" lon="-1.60314">
        <ele>65</ele>
        <time>2018-03-22T11:01:05Z</time>
      </trkpt>
      <trkpt lat="46.73857" lon="-1.60333">
        <ele>65</ele>
        <time>2018-03-22T11:02:05Z</time>
      </trkpt>
      <trkpt lat="46.73861" lon="-1.60354">
        <ele>64</ele>
        <time>2018-03-22T11:03:05Z</time>
      </trkpt>
      <trkpt lat="46.73858" lon="-1.60368">
        <ele>64</ele>
        <time>2018-03-22T11:04:05Z</time>
      </trkpt>
      <trkpt lat="46.73852" lon="-1.60378">
        <ele>64</ele>
        <time>2018-03-22T11:05:05Z</time>
      </trkpt>
      <trkpt lat="46.73843" lon="-1.60385">
        <ele>64</ele>
        <time>2018-03-22T11:06:05Z</time>
      </trkpt>
      <trkpt lat="46.73828" lon="-1.60409">
        <ele>64</ele>
        <time>2018-03-22T11:07:05Z</time>
      </trkpt>
      <trkpt lat="46.7383" lon="-1.60424">
        <ele>64</ele>
        <time>2018-03-22T11:08:05Z</time>
      </trkpt>
      <trkpt lat="46.73897" lon="-1.60616">
        <ele>60</ele>
        <time>2018-03-22T11:09:05Z</time>
      </trkpt>
      <trkpt lat="46.73926" lon="-1.60708">
        <ele>58</ele>
        <time>2018-03-22T11:10:05Z</time>
      </trkpt>
      <trkpt lat="46.73931" lon="-1.60709">
        <ele>59</ele>
        <time>2018-03-22T11:11:05Z</time>
      </trkpt>
      <trkpt lat="46.73933" lon="-1.60712">
        <ele>59</ele>
        <time>2018-03-22T11:12:05Z</time>
      </trkpt>
      <trkpt lat="46.73932" lon="-1.60717">
        <ele>58</ele>
        <time>2018-03-22T11:13:05Z</time>
      </trkpt>
      <trkpt lat="46.73931" lon="-1.6072">
        <ele>58</ele>
        <time>2018-03-22T11:14:05Z</time>
      </trkpt>
      <trkpt lat="46.73926" lon="-1.60721">
        <ele>58</ele>
        <time>2018-03-22T11:15:05Z</time>
      </trkpt>
      <trkpt lat="46.73809" lon="-1.60976">
        <ele>56</ele>
        <time>2018-03-22T11:16:05Z</time>
      </trkpt>
      <trkpt lat="46.73802" lon="-1.60984">
        <ele>56</ele>
        <time>2018-03-22T11:17:05Z</time>
      </trkpt>
      <trkpt lat="46.73804" lon="-1.60989">
        <ele>56</ele>
        <time>2018-03-22T11:18:05Z</time>
      </trkpt>
      <trkpt lat="46.73803" lon="-1.60995">
        <ele>56</ele>
        <time>2018-03-22T11:19:05Z</time>
      </trkpt>
      <trkpt lat="46.7383" lon="-1.61002">
        <ele>56</ele>
        <time>2018-03-22T11:20:05Z</time>
      </trkpt>
      <trkpt lat="46.7383" lon="-1.61002">
        <ele>56</ele>
        <time>2018-03-22T11:21:05Z</time>
      </trkpt>
      <trkpt lat="46.73867" lon="-1.6101">
        <ele>56</ele>
        <time>2018-03-22T11:22:05Z</time>
      </trkpt>
      <trkpt lat="46.73877" lon="-1.6101">
        <ele>56</ele>
        <time>2018-03-22T11:23:05Z</time>
      </trkpt>
      <trkpt lat="46.7389" lon="-1.61001">
        <ele>57</ele>
        <time>2018-03-22T11:24:05Z</time>
      </trkpt>
      <trkpt lat="46.7389" lon="-1.61006">
        <ele>57</ele>
        <time>2018-03-22T11:25:05Z</time>
      </trkpt>
      <trkpt lat="46.73882" lon="-1.6103">
        <ele>56</ele>
        <time>2018-03-22T11:26:05Z</time>
      </trkpt>
      <trkpt lat="46.73878" lon="-1.61061">
        <ele>56</ele>
        <time>2018-03-22T11:27:05Z</time>
      </trkpt>
      <trkpt lat="46.7388" lon="-1.61097">
        <ele>56</ele>
        <time>2018-03-22T11:28:05Z</time>
      </trkpt>
      <trkpt lat="46.7389" lon="-1.61125">
        <ele>58</ele>
        <time>2018-03-22T11:29:05Z</time>
      </trkpt>
      <trkpt lat="46.7393" lon="-1.61212">
        <ele>59</ele>
        <time>2018-03-22T11:30:05Z</time>
      </trkpt>
      <trkpt lat="46.73935" lon="-1.61218">
        <ele>59</ele>
        <time>2018-03-22T11:31:05Z</time>
      </trkpt>
      <trkpt lat="46.7395" lon="-1.61224">
        <ele>59</ele>
        <time>2018-03-22T11:32:05Z</time>
      </trkpt>
      <trkpt lat="46.73952" lon="-1.61215">
        <ele>59</ele>
        <time>2018-03-22T11:33:05Z</time>
      </trkpt>
      <trkpt lat="46.73958" lon="-1.61206">
        <ele>59</ele>
        <time>2018-03-22T11:34:05Z</time>
      </trkpt>
      <trkpt lat="46.7399" lon="-1.61162">
        <ele>59</ele>
        <time>2018-03-22T11:35:05Z</time>
      </trkpt>
      <trkpt lat="46.74057" lon="-1.61282">
        <ele>60</ele>
        <time>2018-03-22T11:36:05Z</time>
      </trkpt>
      <trkpt lat="46.74086" lon="-1.61326">
        <ele>60</ele>
        <time>2018-03-22T11:37:05Z</time>
      </trkpt>
      <trkpt lat="46.74116" lon="-1.61378">
        <ele>60</ele>
        <time>2018-03-22T11:38:05Z</time>
      </trkpt>
      <trkpt lat="46.74129" lon="-1.6141">
        <ele>60</ele>
        <time>2018-03-22T11:39:05Z</time>
      </trkpt>
      <trkpt lat="46.7414" lon="-1.61494">
        <ele>58</ele>
        <time>2018-03-22T11:40:05Z</time>
      </trkpt>
      <trkpt lat="46.74146" lon="-1.61519">
        <ele>58</ele>
        <time>2018-03-22T11:41:05Z</time>
      </trkpt>
      <trkpt lat="46.74157" lon="-1.61539">
        <ele>57</ele>
        <time>2018-03-22T11:42:05Z</time>
      </trkpt>
      <trkpt lat="46.74157" lon="-1.61539">
        <ele>57</ele>
        <time>2018-03-22T11:43:05Z</time>
      </trkpt>
      <trkpt lat="46.74198" lon="-1.61612">
        <ele>56</ele>
        <time>2018-03-22T11:44:05Z</time>
      </trkpt>
      <trkpt lat="46.74223" lon="-1.61669">
        <ele>55</ele>
        <time>2018-03-22T11:45:05Z</time>
      </trkpt>
      <trkpt lat="46.74241" lon="-1.61719">
        <ele>55</ele>
        <time>2018-03-22T11:46:05Z</time>
      </trkpt>
      <trkpt lat="46.74256" lon="-1.61782">
        <ele>55</ele>
        <time>2018-03-22T11:47:05Z</time>
      </trkpt>
      <trkpt lat="46.74267" lon="-1.61841">
        <ele>54</ele>
        <time>2018-03-22T11:48:05Z</time>
      </trkpt>
      <trkpt lat="46.74294" lon="-1.619">
        <ele>54</ele>
        <time>2018-03-22T11:49:05Z</time>
      </trkpt>
      <trkpt lat="46.74343" lon="-1.61976">
        <ele>55</ele>
        <time>2018-03-22T11:50:05Z</time>
      </trkpt>
      <trkpt lat="46.7442" lon="-1.62122">
        <ele>54</ele>
        <time>2018-03-22T11:51:05Z</time>
      </trkpt>
      <trkpt lat="46.74466" lon="-1.62244">
        <ele>53</ele>
        <time>2018-03-22T11:52:05Z</time>
      </trkpt>
      <trkpt lat="46.74565" lon="-1.62615">
        <ele>43</ele>
        <time>2018-03-22T11:53:05Z</time>
      </trkpt>
      <trkpt lat="46.74605" lon="-1.62749">
        <ele>44</ele>
        <time>2018-03-22T11:54:05Z</time>
      </trkpt>
      <trkpt lat="46.74618" lon="-1.62813">
        <ele>45</ele>
        <time>2018-03-22T11:55:05Z</time>
      </trkpt>
      <trkpt lat="46.74624" lon="-1.62879">
        <ele>44</ele>
        <time>2018-03-22T11:56:05Z</time>
      </trkpt>
      <trkpt lat="46.74622" lon="-1.63109">
        <ele>41</ele>
        <time>2018-03-22T11:57:05Z</time>
      </trkpt>
      <trkpt lat="46.74612" lon="-1.63295">
        <ele>38</ele>
        <time>2018-03-22T11:58:05Z</time>
      </trkpt>
      <trkpt lat="46.74616" lon="-1.63497">
        <ele>35</ele>
        <time>2018-03-22T11:59:05Z</time>
      </trkpt>
      <trkpt lat="46.74646" lon="-1.63793">
        <ele>36</ele>
        <time>2018-03-22T12:00:05Z</time>
      </trkpt>
      <trkpt lat="46.74666" lon="-1.63881">
        <ele>38</ele>
        <time>2018-03-22T12:01:05Z</time>
      </trkpt>
      <trkpt lat="46.74703" lon="-1.64014">
        <ele>38</ele>
        <time>2018-03-22T12:02:05Z</time>
      </trkpt>
      <trkpt lat="46.74753" lon="-1.64109">
        <ele>38</ele>
        <time>2018-03-22T12:03:05Z</time>
      </trkpt>
      <trkpt lat="46.74778" lon="-1.6419">
        <ele>37</ele>
        <time>2018-03-22T12:04:05Z</time>
      </trkpt>
      <trkpt lat="46.74791" lon="-1.64321">
        <ele>37</ele>
        <time>2018-03-22T12:05:05Z</time>
      </trkpt>
      <trkpt lat="46.7481" lon="-1.64428">
        <ele>37</ele>
        <time>2018-03-22T12:06:05Z</time>
      </trkpt>
      <trkpt lat="46.7484" lon="-1.64568">
        <ele>37</ele>
        <time>2018-03-22T12:07:05Z</time>
      </trkpt>
      <trkpt lat="46.7485" lon="-1.64609">
        <ele>37</ele>
        <time>2018-03-22T12:08:05Z</time>
      </trkpt>
      <trkpt lat="46.7491" lon="-1.64782">
        <ele>33</ele>
        <time>2018-03-22T12:09:05Z</time>
      </trkpt>
      <trkpt lat="46.74934" lon="-1.64858">
        <ele>31</ele>
        <time>2018-03-22T12:10:05Z</time>
      </trkpt>
      <trkpt lat="46.74941" lon="-1.64911">
        <ele>30</ele>
        <time>2018-03-22T12:11:05Z</time>
      </trkpt>
      <trkpt lat="46.74969" lon="-1.65025">
        <ele>28</ele>
        <time>2018-03-22T12:12:05Z</time>
      </trkpt>
      <trkpt lat="46.75012" lon="-1.65171">
        <ele>27</ele>
        <time>2018-03-22T12:13:05Z</time>
      </trkpt>
      <trkpt lat="46.7506" lon="-1.65293">
        <ele>30</ele>
        <time>2018-03-22T12:14:05Z</time>
      </trkpt>
      <trkpt lat="46.75088" lon="-1.65437">
        <ele>32</ele>
        <time>2018-03-22T12:15:05Z</time>
      </trkpt>
      <trkpt lat="46.75097" lon="-1.65521">
        <ele>33</ele>
        <time>2018-03-22T12:16:05Z</time>
      </trkpt>
      <trkpt lat="46.75091" lon="-1.6587">
        <ele>33</ele>
        <time>2018-03-22T12:17:05Z</time>
      </trkpt>
      <trkpt lat="46.75093" lon="-1.661">
        <ele>31</ele>
        <time>2018-03-22T12:18:05Z</time>
      </trkpt>
      <trkpt lat="46.75115" lon="-1.66285">
        <ele>28</ele>
        <time>2018-03-22T12:19:05Z</time>
      </trkpt>
      <trkpt lat="46.75112" lon="-1.66342">
        <ele>27</ele>
        <time>2018-03-22T12:20:05Z</time>
      </trkpt>
      <trkpt lat="46.75091" lon="-1.66471">
        <ele>25</ele>
        <time>2018-03-22T12:21:05Z</time>
      </trkpt>
      <trkpt lat="46.75094" lon="-1.66525">
        <ele>25</ele>
        <time>2018-03-22T12:22:05Z</time>
      </trkpt>
      <trkpt lat="46.7514" lon="-1.66626">
        <ele>25</ele>
        <time>2018-03-22T12:23:05Z</time>
      </trkpt>
      <trkpt lat="46.75184" lon="-1.66767">
        <ele>28</ele>
        <time>2018-03-22T12:24:05Z</time>
      </trkpt>
      <trkpt lat="46.752" lon="-1.66832">
        <ele>27</ele>
        <time>2018-03-22T12:25:05Z</time>
      </trkpt>
      <trkpt lat="46.75216" lon="-1.66956">
        <ele>23</ele>
        <time>2018-03-22T12:26:05Z</time>
      </trkpt>
      <trkpt lat="46.75197" lon="-1.67017">
        <ele>23</ele>
        <time>2018-03-22T12:27:05Z</time>
      </trkpt>
      <trkpt lat="46.75172" lon="-1.67076">
        <ele>23</ele>
        <time>2018-03-22T12:28:05Z</time>
      </trkpt>
      <trkpt lat="46.75135" lon="-1.67194">
        <ele>24</ele>
        <time>2018-03-22T12:29:05Z</time>
      </trkpt>
      <trkpt lat="46.7511" lon="-1.67323">
        <ele>24</ele>
        <time>2018-03-22T12:30:05Z</time>
      </trkpt>
      <trkpt lat="46.75105" lon="-1.67371">
        <ele>24</ele>
        <time>2018-03-22T12:31:05Z</time>
      </trkpt>
      <trkpt lat="46.75163" lon="-1.67377">
        <ele>23</ele>
        <time>2018-03-22T12:32:05Z</time>
      </trkpt>
      <trkpt lat="46.75229" lon="-1.67435">
        <ele>20</ele>
        <time>2018-03-22T12:33:05Z</time>
      </trkpt>
      <trkpt lat="46.75262" lon="-1.67503">
        <ele>14</ele>
        <time>2018-03-22T12:34:05Z</time>
      </trkpt>
      <trkpt lat="46.75311" lon="-1.67593">
        <ele>10</ele>
        <time>2018-03-22T12:35:05Z</time>
      </trkpt>
      <trkpt lat="46.75311" lon="-1.67593">
        <ele>10</ele>
        <time>2018-03-22T12:36:05Z</time>
      </trkpt>
      <trkpt lat="46.75377" lon="-1.67715">
        <ele>16</ele>
        <time>2018-03-22T12:37:05Z</time>
      </trkpt>
      <trkpt lat="46.75401" lon="-1.67814">
        <ele>22</ele>
        <time>2018-03-22T12:38:05Z</time>
      </trkpt>
      <trkpt lat="46.75428" lon="-1.68044">
        <ele>29</ele>
        <time>2018-03-22T12:39:05Z</time>
      </trkpt>
      <trkpt lat="46.75463" lon="-1.68297">
        <ele>37</ele>
        <time>2018-03-22T12:40:05Z</time>
      </trkpt>
      <trkpt lat="46.755" lon="-1.68576">
        <ele>42</ele>
        <time>2018-03-22T12:41:05Z</time>
      </trkpt>
      <trkpt lat="46.75474" lon="-1.68572">
        <ele>41</ele>
        <time>2018-03-22T12:42:05Z</time>
      </trkpt>
      <trkpt lat="46.75454" lon="-1.68575">
        <ele>41</ele>
        <time>2018-03-22T12:43:05Z</time>
      </trkpt>
      <trkpt lat="46.75437" lon="-1.68587">
        <ele>41</ele>
        <time>2018-03-22T12:44:05Z</time>
      </trkpt>
      <trkpt lat="46.75424" lon="-1.68599">
        <ele>41</ele>
        <time>2018-03-22T12:45:05Z</time>
      </trkpt>
      <trkpt lat="46.75418" lon="-1.68607">
        <ele>41</ele>
        <time>2018-03-22T12:46:05Z</time>
      </trkpt>
      <trkpt lat="46.75407" lon="-1.68633">
        <ele>41</ele>
        <time>2018-03-22T12:47:05Z</time>
      </trkpt>
      <trkpt lat="46.75405" lon="-1.68647">
        <ele>41</ele>
        <time>2018-03-22T12:48:05Z</time>
      </trkpt>
      <trkpt lat="46.75383" lon="-1.68959">
        <ele>47</ele>
        <time>2018-03-22T12:49:05Z</time>
      </trkpt>
      <trkpt lat="46.75386" lon="-1.68964">
        <ele>47</ele>
        <time>2018-03-22T12:50:05Z</time>
      </trkpt>
      <trkpt lat="46.75383" lon="-1.68968">
        <ele>47</ele>
        <time>2018-03-22T12:51:05Z</time>
      </trkpt>
      <trkpt lat="46.75381" lon="-1.68989">
        <ele>48</ele>
        <time>2018-03-22T12:52:05Z</time>
      </trkpt>
      <trkpt lat="46.75382" lon="-1.69017">
        <ele>48</ele>
        <time>2018-03-22T12:53:05Z</time>
      </trkpt>
      <trkpt lat="46.75384" lon="-1.69035">
        <ele>49</ele>
        <time>2018-03-22T12:54:05Z</time>
      </trkpt>
      <trkpt lat="46.75392" lon="-1.69063">
        <ele>49</ele>
        <time>2018-03-22T12:55:05Z</time>
      </trkpt>
      <trkpt lat="46.75453" lon="-1.69204">
        <ele>54</ele>
        <time>2018-03-22T12:56:05Z</time>
      </trkpt>
      <trkpt lat="46.75474" lon="-1.6926">
        <ele>55</ele>
        <time>2018-03-22T12:57:05Z</time>
      </trkpt>
      <trkpt lat="46.75542" lon="-1.69477">
        <ele>56</ele>
        <time>2018-03-22T12:58:05Z</time>
      </trkpt>
      <trkpt lat="46.75564" lon="-1.69566">
        <ele>58</ele>
        <time>2018-03-22T12:59:05Z</time>
      </trkpt>
      <trkpt lat="46.75571" lon="-1.696">
        <ele>58</ele>
        <time>2018-03-22T13:00:05Z</time>
      </trkpt>
      <trkpt lat="46.75606" lon="-1.69816">
        <ele>59</ele>
        <time>2018-03-22T13:01:05Z</time>
      </trkpt>
      <trkpt lat="46.7562" lon="-1.69896">
        <ele>60</ele>
        <time>2018-03-22T13:02:05Z</time>
      </trkpt>
      <trkpt lat="46.7563" lon="-1.69932">
        <ele>61</ele>
        <time>2018-03-22T13:03:05Z</time>
      </trkpt>
      <trkpt lat="46.75645" lon="-1.69968">
        <ele>61</ele>
        <time>2018-03-22T13:04:05Z</time>
      </trkpt>
      <trkpt lat="46.75649" lon="-1.69984">
        <ele>61</ele>
        <time>2018-03-22T13:05:05Z</time>
      </trkpt>
      <trkpt lat="46.75667" lon="-1.70205">
        <ele>62</ele>
        <time>2018-03-22T13:06:05Z</time>
      </trkpt>
      <trkpt lat="46.75671" lon="-1.70284">
        <ele>61</ele>
        <time>2018-03-22T13:07:05Z</time>
      </trkpt>
      <trkpt lat="46.75663" lon="-1.70445">
        <ele>61</ele>
        <time>2018-03-22T13:08:05Z</time>
      </trkpt>
      <trkpt lat="46.75654" lon="-1.70674">
        <ele>59</ele>
        <time>2018-03-22T13:09:05Z</time>
      </trkpt>
      <trkpt lat="46.75652" lon="-1.70786">
        <ele>61</ele>
        <time>2018-03-22T13:10:05Z</time>
      </trkpt>
      <trkpt lat="46.75661" lon="-1.71043">
        <ele>59</ele>
        <time>2018-03-22T13:11:05Z</time>
      </trkpt>
      <trkpt lat="46.75661" lon="-1.71135">
        <ele>60</ele>
        <time>2018-03-22T13:12:05Z</time>
      </trkpt>
      <trkpt lat="46.75659" lon="-1.71231">
        <ele>60</ele>
        <time>2018-03-22T13:13:05Z</time>
      </trkpt>
      <trkpt lat="46.75653" lon="-1.71384">
        <ele>60</ele>
        <time>2018-03-22T13:14:05Z</time>
      </trkpt>
      <trkpt lat="46.75634" lon="-1.7166">
        <ele>57</ele>
        <time>2018-03-22T13:15:05Z</time>
      </trkpt>
      <trkpt lat="46.75631" lon="-1.71773">
        <ele>57</ele>
        <time>2018-03-22T13:16:05Z</time>
      </trkpt>
      <trkpt lat="46.75633" lon="-1.71928">
        <ele>56</ele>
        <time>2018-03-22T13:17:05Z</time>
      </trkpt>
      <trkpt lat="46.75656" lon="-1.72156">
        <ele>58</ele>
        <time>2018-03-22T13:18:05Z</time>
      </trkpt>
      <trkpt lat="46.7566" lon="-1.72395">
        <ele>56</ele>
        <time>2018-03-22T13:19:05Z</time>
      </trkpt>
      <trkpt lat="46.75653" lon="-1.72483">
        <ele>56</ele>
        <time>2018-03-22T13:20:05Z</time>
      </trkpt>
      <trkpt lat="46.75636" lon="-1.72642">
        <ele>56</ele>
        <time>2018-03-22T13:21:05Z</time>
      </trkpt>
      <trkpt lat="46.75622" lon="-1.72829">
        <ele>57</ele>
        <time>2018-03-22T13:22:05Z</time>
      </trkpt>
      <trkpt lat="46.75621" lon="-1.7306">
        <ele>54</ele>
        <time>2018-03-22T13:23:05Z</time>
      </trkpt>
      <trkpt lat="46.75628" lon="-1.73065">
        <ele>54</ele>
        <time>2018-03-22T13:24:05Z</time>
      </trkpt>
      <trkpt lat="46.75631" lon="-1.73075">
        <ele>54</ele>
        <time>2018-03-22T13:25:05Z</time>
      </trkpt>
      <trkpt lat="46.75627" lon="-1.73088">
        <ele>54</ele>
        <time>2018-03-22T13:26:05Z</time>
      </trkpt>
      <trkpt lat="46.75618" lon="-1.73092">
        <ele>53</ele>
        <time>2018-03-22T13:27:05Z</time>
      </trkpt>
      <trkpt lat="46.75602" lon="-1.73194">
        <ele>54</ele>
        <time>2018-03-22T13:28:05Z</time>
      </trkpt>
      <trkpt lat="46.75566" lon="-1.73365">
        <ele>56</ele>
        <time>2018-03-22T13:29:05Z</time>
      </trkpt>
      <trkpt lat="46.75552" lon="-1.73409">
        <ele>56</ele>
        <time>2018-03-22T13:30:05Z</time>
      </trkpt>
      <trkpt lat="46.75528" lon="-1.73455">
        <ele>56</ele>
        <time>2018-03-22T13:31:05Z</time>
      </trkpt>
      <trkpt lat="46.75507" lon="-1.73481">
        <ele>56</ele>
        <time>2018-03-22T13:32:05Z</time>
      </trkpt>
      <trkpt lat="46.75327" lon="-1.73665">
        <ele>52</ele>
        <time>2018-03-22T13:33:05Z</time>
      </trkpt>
      <trkpt lat="46.75296" lon="-1.73701">
        <ele>51</ele>
        <time>2018-03-22T13:34:05Z</time>
      </trkpt>
      <trkpt lat="46.75262" lon="-1.7376">
        <ele>50</ele>
        <time>2018-03-22T13:35:05Z</time>
      </trkpt>
      <trkpt lat="46.75219" lon="-1.73849">
        <ele>47</ele>
        <time>2018-03-22T13:36:05Z</time>
      </trkpt>
      <trkpt lat="46.75205" lon="-1.73871">
        <ele>46</ele>
        <time>2018-03-22T13:37:05Z</time>
      </trkpt>
      <trkpt lat="46.752" lon="-1.73865">
        <ele>46</ele>
        <time>2018-03-22T13:38:05Z</time>
      </trkpt>
      <trkpt lat="46.75158" lon="-1.73842">
        <ele>45</ele>
        <time>2018-03-22T13:39:05Z</time>
      </trkpt>
      <trkpt lat="46.75138" lon="-1.73838">
        <ele>45</ele>
        <time>2018-03-22T13:40:05Z</time>
      </trkpt>
      <trkpt lat="46.75116" lon="-1.73839">
        <ele>43</ele>
        <time>2018-03-22T13:41:05Z</time>
      </trkpt>
      <trkpt lat="46.75034" lon="-1.7385">
        <ele>39</ele>
        <time>2018-03-22T13:42:05Z</time>
      </trkpt>
      <trkpt lat="46.74906" lon="-1.73839">
        <ele>33</ele>
        <time>2018-03-22T13:43:05Z</time>
      </trkpt>
      <trkpt lat="46.74885" lon="-1.73846">
        <ele>32</ele>
        <time>2018-03-22T13:44:05Z</time>
      </trkpt>
      <trkpt lat="46.74861" lon="-1.73867">
        <ele>30</ele>
        <time>2018-03-22T13:45:05Z</time>
      </trkpt>
      <trkpt lat="46.74868" lon="-1.73886">
        <ele>30</ele>
        <time>2018-03-22T13:46:05Z</time>
      </trkpt>
      <trkpt lat="46.74899" lon="-1.73947">
        <ele>28</ele>
        <time>2018-03-22T13:47:05Z</time>
      </trkpt>
      <trkpt lat="46.74913" lon="-1.73957">
        <ele>28</ele>
        <time>2018-03-22T13:48:05Z</time>
      </trkpt>
      <trkpt lat="46.74913" lon="-1.73957">
        <ele>28</ele>
        <time>2018-03-22T13:49:05Z</time>
      </trkpt>
      <trkpt lat="46.74926" lon="-1.73959">
        <ele>28</ele>
        <time>2018-03-22T13:50:05Z</time>
      </trkpt>
      <trkpt lat="46.74938" lon="-1.73964">
        <ele>28</ele>
        <time>2018-03-22T13:51:05Z</time>
      </trkpt>
      <trkpt lat="46.7497" lon="-1.74011">
        <ele>27</ele>
        <time>2018-03-22T13:52:05Z</time>
      </trkpt>
      <trkpt lat="46.7496" lon="-1.74025">
        <ele>27</ele>
        <time>2018-03-22T13:53:05Z</time>
      </trkpt>
      <trkpt lat="46.74929" lon="-1.74047">
        <ele>25</ele>
        <time>2018-03-22T13:54:05Z</time>
      </trkpt>
      <trkpt lat="46.74884" lon="-1.74066">
        <ele>22</ele>
        <time>2018-03-22T13:55:05Z</time>
      </trkpt>
      <trkpt lat="46.74884" lon="-1.74066">
        <ele>22</ele>
        <time>2018-03-22T13:56:05Z</time>
      </trkpt>
      <trkpt lat="46.74847" lon="-1.74083">
        <ele>18</ele>
        <time>2018-03-22T13:57:05Z</time>
      </trkpt>
      <trkpt lat="46.74803" lon="-1.74097">
        <ele>15</ele>
        <time>2018-03-22T13:58:05Z</time>
      </trkpt>
      <trkpt lat="46.74757" lon="-1.74137">
        <ele>11</ele>
        <time>2018-03-22T13:59:05Z</time>
      </trkpt>
      <trkpt lat="46.74737" lon="-1.74157">
        <ele>12</ele>
        <time>2018-03-22T14:00:05Z</time>
      </trkpt>
      <trkpt lat="46.74727" lon="-1.74171">
        <ele>13</ele>
        <time>2018-03-22T14:01:05Z</time>
      </trkpt>
      <trkpt lat="46.74736" lon="-1.74199">
        <ele>13</ele>
        <time>2018-03-22T14:02:05Z</time>
      </trkpt>
      <trkpt lat="46.7474" lon="-1.74227">
        <ele>14</ele>
        <time>2018-03-22T14:03:05Z</time>
      </trkpt>
      <trkpt lat="46.74739" lon="-1.74264">
        <ele>15</ele>
        <time>2018-03-22T14:04:05Z</time>
      </trkpt>
      <trkpt lat="46.74734" lon="-1.7433">
        <ele>15</ele>
        <time>2018-03-22T14:05:05Z</time>
      </trkpt>
      <trkpt lat="46.74726" lon="-1.74367">
        <ele>16</ele>
        <time>2018-03-22T14:06:05Z</time>
      </trkpt>
      <trkpt lat="46.74696" lon="-1.74435">
        <ele>18</ele>
        <time>2018-03-22T14:07:05Z</time>
      </trkpt>
      <trkpt lat="46.74594" lon="-1.74579">
        <ele>24</ele>
        <time>2018-03-22T14:08:05Z</time>
      </trkpt>
      <trkpt lat="46.74643" lon="-1.74855">
        <ele>24</ele>
        <time>2018-03-22T14:09:05Z</time>
      </trkpt>
      <trkpt lat="46.7465" lon="-1.74918">
        <ele>22</ele>
        <time>2018-03-22T14:10:05Z</time>
      </trkpt>
      <trkpt lat="46.74646" lon="-1.74961">
        <ele>23</ele>
        <time>2018-03-22T14:11:05Z</time>
      </trkpt>
      <trkpt lat="46.74626" lon="-1.75091">
        <ele>26</ele>
        <time>2018-03-22T14:12:05Z</time>
      </trkpt>
      <trkpt lat="46.74601" lon="-1.75212">
        <ele>25</ele>
        <time>2018-03-22T14:13:05Z</time>
      </trkpt>
      <trkpt lat="46.74583" lon="-1.75284">
        <ele>25</ele>
        <time>2018-03-22T14:14:05Z</time>
      </trkpt>
      <trkpt lat="46.74568" lon="-1.75324">
        <ele>25</ele>
        <time>2018-03-22T14:15:05Z</time>
      </trkpt>
      <trkpt lat="46.74438" lon="-1.75638">
        <ele>21</ele>
        <time>2018-03-22T14:16:05Z</time>
      </trkpt>
      <trkpt lat="46.74266" lon="-1.76042">
        <ele>21</ele>
        <time>2018-03-22T14:17:05Z</time>
      </trkpt>
      <trkpt lat="46.74237" lon="-1.76107">
        <ele>21</ele>
        <time>2018-03-22T14:18:05Z</time>
      </trkpt>
      <trkpt lat="46.74179" lon="-1.76215">
        <ele>23</ele>
        <time>2018-03-22T14:19:05Z</time>
      </trkpt>
      <trkpt lat="46.7416" lon="-1.76261">
        <ele>24</ele>
        <time>2018-03-22T14:20:05Z</time>
      </trkpt>
      <trkpt lat="46.74147" lon="-1.76312">
        <ele>22</ele>
        <time>2018-03-22T14:21:05Z</time>
      </trkpt>
      <trkpt lat="46.7414" lon="-1.76361">
        <ele>21</ele>
        <time>2018-03-22T14:22:05Z</time>
      </trkpt>
      <trkpt lat="46.7414" lon="-1.76908">
        <ele>11</ele>
        <time>2018-03-22T14:23:05Z</time>
      </trkpt>
      <trkpt lat="46.74136" lon="-1.76968">
        <ele>10</ele>
        <time>2018-03-22T14:24:05Z</time>
      </trkpt>
      <trkpt lat="46.74126" lon="-1.77018">
        <ele>11</ele>
        <time>2018-03-22T14:25:05Z</time>
      </trkpt>
      <trkpt lat="46.73996" lon="-1.77417">
        <ele>16</ele>
        <time>2018-03-22T14:26:05Z</time>
      </trkpt>
      <trkpt lat="46.73981" lon="-1.77474">
        <ele>17</ele>
        <time>2018-03-22T14:27:05Z</time>
      </trkpt>
      <trkpt lat="46.73931" lon="-1.78102">
        <ele>20</ele>
        <time>2018-03-22T14:28:05Z</time>
      </trkpt>
      <trkpt lat="46.73924" lon="-1.78167">
        <ele>20</ele>
        <time>2018-03-22T14:29:05Z</time>
      </trkpt>
      <trkpt lat="46.73872" lon="-1.78381">
        <ele>18</ele>
        <time>2018-03-22T14:30:05Z</time>
      </trkpt>
      <trkpt lat="46.73864" lon="-1.78423">
        <ele>16</ele>
        <time>2018-03-22T14:31:05Z</time>
      </trkpt>
      <trkpt lat="46.7386" lon="-1.78458">
        <ele>15</ele>
        <time>2018-03-22T14:32:05Z</time>
      </trkpt>
      <trkpt lat="46.73863" lon="-1.78502">
        <ele>14</ele>
        <time>2018-03-22T14:33:05Z</time>
      </trkpt>
      <trkpt lat="46.73867" lon="-1.78533">
        <ele>15</ele>
        <time>2018-03-22T14:34:05Z</time>
      </trkpt>
      <trkpt lat="46.73886" lon="-1.78589">
        <ele>15</ele>
        <time>2018-03-22T14:35:05Z</time>
      </trkpt>
      <trkpt lat="46.73893" lon="-1.78602">
        <ele>15</ele>
        <time>2018-03-22T14:36:05Z</time>
      </trkpt>
      <trkpt lat="46.73937" lon="-1.7871">
        <ele>15</ele>
        <time>2018-03-22T14:37:05Z</time>
      </trkpt>
      <trkpt lat="46.73964" lon="-1.78772">
        <ele>16</ele>
        <time>2018-03-22T14:38:05Z</time>
      </trkpt>
      <trkpt lat="46.73996" lon="-1.78834">
        <ele>18</ele>
        <time>2018-03-22T14:39:05Z</time>
      </trkpt>
      <trkpt lat="46.74021" lon="-1.7892">
        <ele>21</ele>
        <time>2018-03-22T14:40:05Z</time>
      </trkpt>
      <trkpt lat="46.74027" lon="-1.78996">
        <ele>22</ele>
        <time>2018-03-22T14:41:05Z</time>
      </trkpt>
      <trkpt lat="46.74022" lon="-1.79142">
        <ele>23</ele>
        <time>2018-03-22T14:42:05Z</time>
      </trkpt>
      <trkpt lat="46.74016" lon="-1.79168">
        <ele>23</ele>
        <time>2018-03-22T14:43:05Z</time>
      </trkpt>
      <trkpt lat="46.74379" lon="-1.79282">
        <ele>19</ele>
        <time>2018-03-22T14:44:05Z</time>
      </trkpt>
      <trkpt lat="46.74428" lon="-1.79309">
        <ele>18</ele>
        <time>2018-03-22T14:45:05Z</time>
      </trkpt>
      <trkpt lat="46.74468" lon="-1.79353">
        <ele>17</ele>
        <time>2018-03-22T14:46:05Z</time>
      </trkpt>
      <trkpt lat="46.74501" lon="-1.79426">
        <ele>17</ele>
        <time>2018-03-22T14:47:05Z</time>
      </trkpt>
      <trkpt lat="46.74558" lon="-1.79525">
        <ele>15</ele>
        <time>2018-03-22T14:48:05Z</time>
      </trkpt>
      <trkpt lat="46.74554" lon="-1.79543">
        <ele>16</ele>
        <time>2018-03-22T14:49:05Z</time>
      </trkpt>
      <trkpt lat="46.7456" lon="-1.79569">
        <ele>16</ele>
        <time>2018-03-22T14:50:05Z</time>
      </trkpt>
      <trkpt lat="46.74577" lon="-1.79603">
        <ele>15</ele>
        <time>2018-03-22T14:51:05Z</time>
      </trkpt>
      <trkpt lat="46.74609" lon="-1.79796">
        <ele>15</ele>
        <time>2018-03-22T14:52:05Z</time>
      </trkpt>
      <trkpt lat="46.74616" lon="-1.7985">
        <ele>15</ele>
        <time>2018-03-22T14:53:05Z</time>
      </trkpt>
      <trkpt lat="46.74617" lon="-1.79893">
        <ele>15</ele>
        <time>2018-03-22T14:54:05Z</time>
      </trkpt>
      <trkpt lat="46.74604" lon="-1.80102">
        <ele>17</ele>
        <time>2018-03-22T14:55:05Z</time>
      </trkpt>
      <trkpt lat="46.74597" lon="-1.80154">
        <ele>17</ele>
        <time>2018-03-22T14:56:05Z</time>
      </trkpt>
      <trkpt lat="46.74581" lon="-1.80208">
        <ele>18</ele>
        <time>2018-03-22T14:57:05Z</time>
      </trkpt>
      <trkpt lat="46.74562" lon="-1.80245">
        <ele>18</ele>
        <time>2018-03-22T14:58:05Z</time>
      </trkpt>
      <trkpt lat="46.74514" lon="-1.80316">
        <ele>18</ele>
        <time>2018-03-22T14:59:05Z</time>
      </trkpt>
      <trkpt lat="46.74514" lon="-1.80316">
        <ele>18</ele>
        <time>2018-03-22T15:00:05Z</time>
      </trkpt>
      <trkpt lat="46.74224" lon="-1.80735">
        <ele>19</ele>
        <time>2018-03-22T15:01:05Z</time>
      </trkpt>
      <trkpt lat="46.74205" lon="-1.80771">
        <ele>20</ele>
        <time>2018-03-22T15:02:05Z</time>
      </trkpt>
      <trkpt lat="46.74185" lon="-1.80834">
        <ele>21</ele>
        <time>2018-03-22T15:03:05Z</time>
      </trkpt>
      <trkpt lat="46.74082" lon="-1.81281">
        <ele>23</ele>
        <time>2018-03-22T15:04:05Z</time>
      </trkpt>
      <trkpt lat="46.74071" lon="-1.81332">
        <ele>23</ele>
        <time>2018-03-22T15:05:05Z</time>
      </trkpt>
      <trkpt lat="46.74067" lon="-1.81367">
        <ele>23</ele>
        <time>2018-03-22T15:06:05Z</time>
      </trkpt>
      <trkpt lat="46.74067" lon="-1.81408">
        <ele>22</ele>
        <time>2018-03-22T15:07:05Z</time>
      </trkpt>
      <trkpt lat="46.74082" lon="-1.81832">
        <ele>18</ele>
        <time>2018-03-22T15:08:05Z</time>
      </trkpt>
      <trkpt lat="46.74084" lon="-1.8188">
        <ele>17</ele>
        <time>2018-03-22T15:09:05Z</time>
      </trkpt>
      <trkpt lat="46.74086" lon="-1.81897">
        <ele>16</ele>
        <time>2018-03-22T15:10:05Z</time>
      </trkpt>
      <trkpt lat="46.74107" lon="-1.82009">
        <ele>16</ele>
        <time>2018-03-22T15:11:05Z</time>
      </trkpt>
      <trkpt lat="46.74112" lon="-1.82052">
        <ele>16</ele>
        <time>2018-03-22T15:12:05Z</time>
      </trkpt>
      <trkpt lat="46.74113" lon="-1.82073">
        <ele>16</ele>
        <time>2018-03-22T15:13:05Z</time>
      </trkpt>
      <trkpt lat="46.74108" lon="-1.82098">
        <ele>16</ele>
        <time>2018-03-22T15:14:05Z</time>
      </trkpt>
      <trkpt lat="46.74099" lon="-1.82108">
        <ele>17</ele>
        <time>2018-03-22T15:15:05Z</time>
      </trkpt>
      <trkpt lat="46.74075" lon="-1.82118">
        <ele>17</ele>
        <time>2018-03-22T15:16:05Z</time>
      </trkpt>
      <trkpt lat="46.74033" lon="-1.82147">
        <ele>17</ele>
        <time>2018-03-22T15:17:05Z</time>
      </trkpt>
      <trkpt lat="46.74007" lon="-1.82159">
        <ele>17</ele>
        <time>2018-03-22T15:18:05Z</time>
      </trkpt>
      <trkpt lat="46.73979" lon="-1.82273">
        <ele>15</ele>
        <time>2018-03-22T15:19:05Z</time>
      </trkpt>
      <trkpt lat="46.73971" lon="-1.82302">
        <ele>15</ele>
        <time>2018-03-22T15:20:05Z</time>
      </trkpt>
      <trkpt lat="46.73961" lon="-1.82327">
        <ele>14</ele>
        <time>2018-03-22T15:21:05Z</time>
      </trkpt>
      <trkpt lat="46.73959" lon="-1.82353">
        <ele>14</ele>
        <time>2018-03-22T15:22:05Z</time>
      </trkpt>
      <trkpt lat="46.73954" lon="-1.82372">
        <ele>13</ele>
        <time>2018-03-22T15:23:05Z</time>
      </trkpt>
      <trkpt lat="46.73844" lon="-1.82796">
        <ele>15</ele>
        <time>2018-03-22T15:24:05Z</time>
      </trkpt>
      <trkpt lat="46.73821" lon="-1.82878">
        <ele>17</ele>
        <time>2018-03-22T15:25:05Z</time>
      </trkpt>
      <trkpt lat="46.7381" lon="-1.82904">
        <ele>17</ele>
        <time>2018-03-22T15:26:05Z</time>
      </trkpt>
      <trkpt lat="46.738" lon="-1.82921">
        <ele>17</ele>
        <time>2018-03-22T15:27:05Z</time>
      </trkpt>
      <trkpt lat="46.73769" lon="-1.82958">
        <ele>18</ele>
        <time>2018-03-22T15:28:05Z</time>
      </trkpt>
      <trkpt lat="46.73631" lon="-1.83061">
        <ele>21</ele>
        <time>2018-03-22T15:29:05Z</time>
      </trkpt>
      <trkpt lat="46.73611" lon="-1.83089">
        <ele>20</ele>
        <time>2018-03-22T15:30:05Z</time>
      </trkpt>
      <trkpt lat="46.73595" lon="-1.83131">
        <ele>20</ele>
        <time>2018-03-22T15:31:05Z</time>
      </trkpt>
      <trkpt lat="46.73559" lon="-1.83277">
        <ele>21</ele>
        <time>2018-03-22T15:32:05Z</time>
      </trkpt>
      <trkpt lat="46.73544" lon="-1.83325">
        <ele>21</ele>
        <time>2018-03-22T15:33:05Z</time>
      </trkpt>
      <trkpt lat="46.73526" lon="-1.83363">
        <ele>21</ele>
        <time>2018-03-22T15:34:05Z</time>
      </trkpt>
      <trkpt lat="46.73429" lon="-1.8348">
        <ele>22</ele>
        <time>2018-03-22T15:35:05Z</time>
      </trkpt>
      <trkpt lat="46.73415" lon="-1.83504">
        <ele>22</ele>
        <time>2018-03-22T15:36:05Z</time>
      </trkpt>
      <trkpt lat="46.73404" lon="-1.83538">
        <ele>22</ele>
        <time>2018-03-22T15:37:05Z</time>
      </trkpt>
      <trkpt lat="46.73395" lon="-1.83574">
        <ele>21</ele>
        <time>2018-03-22T15:38:05Z</time>
      </trkpt>
      <trkpt lat="46.73371" lon="-1.83743">
        <ele>20</ele>
        <time>2018-03-22T15:39:05Z</time>
      </trkpt>
      <trkpt lat="46.73359" lon="-1.83844">
        <ele>20</ele>
        <time>2018-03-22T15:40:05Z</time>
      </trkpt>
      <trkpt lat="46.73356" lon="-1.83901">
        <ele>20</ele>
        <time>2018-03-22T15:41:05Z</time>
      </trkpt>
      <trkpt lat="46.7336" lon="-1.84135">
        <ele>21</ele>
        <time>2018-03-22T15:42:05Z</time>
      </trkpt>
      <trkpt lat="46.7336" lon="-1.8429">
        <ele>21</ele>
        <time>2018-03-22T15:43:05Z</time>
      </trkpt>
      <trkpt lat="46.73358" lon="-1.84337">
        <ele>20</ele>
        <time>2018-03-22T15:44:05Z</time>
      </trkpt>
      <trkpt lat="46.73296" lon="-1.84696">
        <ele>20</ele>
        <time>2018-03-22T15:45:05Z</time>
      </trkpt>
      <trkpt lat="46.7307" lon="-1.85348">
        <ele>11</ele>
        <time>2018-03-22T15:46:05Z</time>
      </trkpt>
      <trkpt lat="46.73051" lon="-1.85437">
        <ele>11</ele>
        <time>2018-03-22T15:47:05Z</time>
      </trkpt>
      <trkpt lat="46.7305" lon="-1.85492">
        <ele>12</ele>
        <time>2018-03-22T15:48:05Z</time>
      </trkpt>
      <trkpt lat="46.7306" lon="-1.85586">
        <ele>12</ele>
        <time>2018-03-22T15:49:05Z</time>
      </trkpt>
      <trkpt lat="46.73086" lon="-1.85759">
        <ele>12</ele>
        <time>2018-03-22T15:50:05Z</time>
      </trkpt>
      <trkpt lat="46.73134" lon="-1.85966">
        <ele>11</ele>
        <time>2018-03-22T15:51:05Z</time>
      </trkpt>
      <trkpt lat="46.73141" lon="-1.86043">
        <ele>11</ele>
        <time>2018-03-22T15:52:05Z</time>
      </trkpt>
      <trkpt lat="46.73133" lon="-1.86308">
        <ele>10</ele>
        <time>2018-03-22T15:53:05Z</time>
      </trkpt>
      <trkpt lat="46.73131" lon="-1.86464">
        <ele>10</ele>
        <time>2018-03-22T15:54:05Z</time>
      </trkpt>
      <trkpt lat="46.73133" lon="-1.86527">
        <ele>11</ele>
        <time>2018-03-22T15:55:05Z</time>
      </trkpt>
      <trkpt lat="46.73143" lon="-1.86602">
        <ele>10</ele>
        <time>2018-03-22T15:56:05Z</time>
      </trkpt>
      <trkpt lat="46.73199" lon="-1.86973">
        <ele>9</ele>
        <time>2018-03-22T15:57:05Z</time>
      </trkpt>
      <trkpt lat="46.73213" lon="-1.87154">
        <ele>11</ele>
        <time>2018-03-22T15:58:05Z</time>
      </trkpt>
      <trkpt lat="46.73218" lon="-1.8717">
        <ele>11</ele>
        <time>2018-03-22T15:59:05Z</time>
      </trkpt>
      <trkpt lat="46.73218" lon="-1.87181">
        <ele>11</ele>
        <time>2018-03-22T16:00:05Z</time>
      </trkpt>
      <trkpt lat="46.73212" lon="-1.87196">
        <ele>11</ele>
        <time>2018-03-22T16:01:05Z</time>
      </trkpt>
      <trkpt lat="46.73207" lon="-1.87201">
        <ele>11</ele>
        <time>2018-03-22T16:02:05Z</time>
      </trkpt>
      <trkpt lat="46.732" lon="-1.87204">
        <ele>12</ele>
        <time>2018-03-22T16:03:05Z</time>
      </trkpt>
      <trkpt lat="46.73195" lon="-1.87204">
        <ele>12</ele>
        <time>2018-03-22T16:04:05Z</time>
      </trkpt>
      <trkpt lat="46.73181" lon="-1.8724">
        <ele>12</ele>
        <time>2018-03-22T16:05:05Z</time>
      </trkpt>
      <trkpt lat="46.73019" lon="-1.87765">
        <ele>11</ele>
        <time>2018-03-22T16:06:05Z</time>
      </trkpt>
      <trkpt lat="46.72988" lon="-1.87861">
        <ele>11</ele>
        <time>2018-03-22T16:07:05Z</time>
      </trkpt>
      <trkpt lat="46.72958" lon="-1.8792">
        <ele>12</ele>
        <time>2018-03-22T16:08:05Z</time>
      </trkpt>
      <trkpt lat="46.7284" lon="-1.88083">
        <ele>12</ele>
        <time>2018-03-22T16:09:05Z</time>
      </trkpt>
      <trkpt lat="46.72752" lon="-1.88217">
        <ele>8</ele>
        <time>2018-03-22T16:10:05Z</time>
      </trkpt>
      <trkpt lat="46.72714" lon="-1.88306">
        <ele>6</ele>
        <time>2018-03-22T16:11:05Z</time>
      </trkpt>
      <trkpt lat="46.72688" lon="-1.88424">
        <ele>5</ele>
        <time>2018-03-22T16:12:05Z</time>
      </trkpt>
      <trkpt lat="46.72653" lon="-1.88818">
        <ele>6</ele>
        <time>2018-03-22T16:13:05Z</time>
      </trkpt>
      <trkpt lat="46.72629" lon="-1.88998">
        <ele>5</ele>
        <time>2018-03-22T16:14:05Z</time>
      </trkpt>
      <trkpt lat="46.7261" lon="-1.89152">
        <ele>6</ele>
        <time>2018-03-22T16:15:05Z</time>
      </trkpt>
      <trkpt lat="46.72593" lon="-1.89272">
        <ele>5</ele>
        <time>2018-03-22T16:16:05Z</time>
      </trkpt>
      <trkpt lat="46.72593" lon="-1.89272">
        <ele>5</ele>
        <time>2018-03-22T16:17:05Z</time>
      </trkpt>
      <trkpt lat="46.72574" lon="-1.89365">
        <ele>5</ele>
        <time>2018-03-22T16:18:05Z</time>
      </trkpt>
      <trkpt lat="46.72557" lon="-1.89427">
        <ele>4</ele>
        <time>2018-03-22T16:19:05Z</time>
      </trkpt>
      <trkpt lat="46.72524" lon="-1.89494">
        <ele>4</ele>
        <time>2018-03-22T16:20:05Z</time>
      </trkpt>
      <trkpt lat="46.72489" lon="-1.89551">
        <ele>4</ele>
        <time>2018-03-22T16:21:05Z</time>
      </trkpt>
      <trkpt lat="46.72461" lon="-1.8959">
        <ele>3</ele>
        <time>2018-03-22T16:22:05Z</time>
      </trkpt>
      <trkpt lat="46.72428" lon="-1.89628">
        <ele>3</ele>
        <time>2018-03-22T16:23:05Z</time>
      </trkpt>
      <trkpt lat="46.72365" lon="-1.89684">
        <ele>4</ele>
        <time>2018-03-22T16:24:05Z</time>
      </trkpt>
      <trkpt lat="46.7225" lon="-1.89771">
        <ele>7</ele>
        <time>2018-03-22T16:25:05Z</time>
      </trkpt>
      <trkpt lat="46.72036" lon="-1.89948">
        <ele>7</ele>
        <time>2018-03-22T16:26:05Z</time>
      </trkpt>
      <trkpt lat="46.72029" lon="-1.89957">
        <ele>7</ele>
        <time>2018-03-22T16:27:05Z</time>
      </trkpt>
      <trkpt lat="46.72007" lon="-1.9">
        <ele>6</ele>
        <time>2018-03-22T16:28:05Z</time>
      </trkpt>
      <trkpt lat="46.71969" lon="-1.90063">
        <ele>6</ele>
        <time>2018-03-22T16:29:05Z</time>
      </trkpt>
      <trkpt lat="46.71959" lon="-1.90132">
        <ele>6</ele>
        <time>2018-03-22T16:30:05Z</time>
      </trkpt>
      <trkpt lat="46.71954" lon="-1.90181">
        <ele>6</ele>
        <time>2018-03-22T16:31:05Z</time>
      </trkpt>
      <trkpt lat="46.71951" lon="-1.90202">
        <ele>6</ele>
        <time>2018-03-22T16:32:05Z</time>
      </trkpt>
      <trkpt lat="46.71942" lon="-1.90224">
        <ele>6</ele>
        <time>2018-03-22T16:33:05Z</time>
      </trkpt>
      <trkpt lat="46.71927" lon="-1.90241">
        <ele>6</ele>
        <time>2018-03-22T16:34:05Z</time>
      </trkpt>
      <trkpt lat="46.71881" lon="-1.90264">
        <ele>7</ele>
        <time>2018-03-22T16:35:05Z</time>
      </trkpt>
      <trkpt lat="46.71868" lon="-1.90309">
        <ele>6</ele>
        <time>2018-03-22T16:36:05Z</time>
      </trkpt>
      <trkpt lat="46.71853" lon="-1.90331">
        <ele>6</ele>
        <time>2018-03-22T16:37:05Z</time>
      </trkpt>
      <trkpt lat="46.71764" lon="-1.9044">
        <ele>7</ele>
        <time>2018-03-22T16:38:05Z</time>
      </trkpt>
      <trkpt lat="46.71568" lon="-1.90674">
        <ele>10</ele>
        <time>2018-03-22T16:39:05Z</time>
      </trkpt>
      <trkpt lat="46.71545" lon="-1.90704">
        <ele>10</ele>
        <time>2018-03-22T16:40:05Z</time>
      </trkpt>
      <trkpt lat="46.7154" lon="-1.90713">
        <ele>10</ele>
        <time>2018-03-22T16:41:05Z</time>
      </trkpt>
      <trkpt lat="46.71494" lon="-1.90764">
        <ele>11</ele>
        <time>2018-03-22T16:42:05Z</time>
      </trkpt>
      <trkpt lat="46.71307" lon="-1.90995">
        <ele>12</ele>
        <time>2018-03-22T16:43:05Z</time>
      </trkpt>
      <trkpt lat="46.71269" lon="-1.91055">
        <ele>12</ele>
        <time>2018-03-22T16:44:05Z</time>
      </trkpt>
      <trkpt lat="46.71269" lon="-1.91055">
        <ele>12</ele>
        <time>2018-03-22T16:45:05Z</time>
      </trkpt>
      <trkpt lat="46.71262" lon="-1.91067">
        <ele>12</ele>
        <time>2018-03-22T16:46:05Z</time>
      </trkpt>
      <trkpt lat="46.71235" lon="-1.9113">
        <ele>12</ele>
        <time>2018-03-22T16:47:05Z</time>
      </trkpt>
      <trkpt lat="46.71093" lon="-1.91466">
        <ele>15</ele>
        <time>2018-03-22T16:48:05Z</time>
      </trkpt>
      <trkpt lat="46.71061" lon="-1.91519">
        <ele>16</ele>
        <time>2018-03-22T16:49:05Z</time>
      </trkpt>
      <trkpt lat="46.70872" lon="-1.91769">
        <ele>19</ele>
        <time>2018-03-22T16:50:05Z</time>
      </trkpt>
      <trkpt lat="46.70861" lon="-1.91777">
        <ele>19</ele>
        <time>2018-03-22T16:51:05Z</time>
      </trkpt>
      <trkpt lat="46.70853" lon="-1.91791">
        <ele>19</ele>
        <time>2018-03-22T16:52:05Z</time>
      </trkpt>
      <trkpt lat="46.70802" lon="-1.9185">
        <ele>20</ele>
        <time>2018-03-22T16:53:05Z</time>
      </trkpt>
      <trkpt lat="46.70699" lon="-1.91956">
        <ele>19</ele>
        <time>2018-03-22T16:54:05Z</time>
      </trkpt>
      <trkpt lat="46.70655" lon="-1.91996">
        <ele>19</ele>
        <time>2018-03-22T16:55:05Z</time>
      </trkpt>
      <trkpt lat="46.70651" lon="-1.92004">
        <ele>19</ele>
        <time>2018-03-22T16:56:05Z</time>
      </trkpt>
      <trkpt lat="46.70653" lon="-1.92018">
        <ele>19</ele>
        <time>2018-03-22T16:57:05Z</time>
      </trkpt>
      <trkpt lat="46.70644" lon="-1.92026">
        <ele>19</ele>
        <time>2018-03-22T16:58:05Z</time>
      </trkpt>
      <trkpt lat="46.70641" lon="-1.92058">
        <ele>19</ele>
        <time>2018-03-22T16:59:05Z</time>
      </trkpt>
      <trkpt lat="46.70635" lon="-1.92223">
        <ele>19</ele>
        <time>2018-03-22T17:00:05Z</time>
      </trkpt>
      <trkpt lat="46.70626" lon="-1.92258">
        <ele>19</ele>
        <time>2018-03-22T17:01:05Z</time>
      </trkpt>
      <trkpt lat="46.70602" lon="-1.92305">
        <ele>18</ele>
        <time>2018-03-22T17:02:05Z</time>
      </trkpt>
      <trkpt lat="46.70582" lon="-1.92334">
        <ele>18</ele>
        <time>2018-03-22T17:03:05Z</time>
      </trkpt>
      <trkpt lat="46.70561" lon="-1.92383">
        <ele>17</ele>
        <time>2018-03-22T17:04:05Z</time>
      </trkpt>
      <trkpt lat="46.70522" lon="-1.92557">
        <ele>12</ele>
        <time>2018-03-22T17:05:05Z</time>
      </trkpt>
      <trkpt lat="46.70521" lon="-1.92585">
        <ele>11</ele>
        <time>2018-03-22T17:06:05Z</time>
      </trkpt>
      <trkpt lat="46.70528" lon="-1.92588">
        <ele>12</ele>
        <time>2018-03-22T17:07:05Z</time>
      </trkpt>
      <trkpt lat="46.70531" lon="-1.92597">
        <ele>12</ele>
        <time>2018-03-22T17:08:05Z</time>
      </trkpt>
      <trkpt lat="46.70528" lon="-1.92605">
        <ele>12</ele>
        <time>2018-03-22T17:09:05Z</time>
      </trkpt>
      <trkpt lat="46.70523" lon="-1.92609">
        <ele>11</ele>
        <time>2018-03-22T17:10:05Z</time>
      </trkpt>
      <trkpt lat="46.70517" lon="-1.92606">
        <ele>11</ele>
        <time>2018-03-22T17:11:05Z</time>
      </trkpt>
      <trkpt lat="46.70505" lon="-1.92616">
        <ele>11</ele>
        <time>2018-03-22T17:12:05Z</time>
      </trkpt>
      <trkpt lat="46.70482" lon="-1.92749">
        <ele>8</ele>
        <time>2018-03-22T17:13:05Z</time>
      </trkpt>
      <trkpt lat="46.70454" lon="-1.9319">
        <ele>4</ele>
        <time>2018-03-22T17:14:05Z</time>
      </trkpt>
      <trkpt lat="46.70454" lon="-1.9319">
        <ele>4</ele>
        <time>2018-03-22T17:15:05Z</time>
      </trkpt>
      <trkpt lat="46.70449" lon="-1.93272">
        <ele>3</ele>
        <time>2018-03-22T17:16:05Z</time>
      </trkpt>
      <trkpt lat="46.70432" lon="-1.93269">
        <ele>3</ele>
        <time>2018-03-22T17:17:05Z</time>
      </trkpt>
      <trkpt lat="46.70389" lon="-1.93248">
        <ele>3</ele>
        <time>2018-03-22T17:18:05Z</time>
      </trkpt>
      <trkpt lat="46.70308" lon="-1.93226">
        <ele>2</ele>
        <time>2018-03-22T17:19:05Z</time>
      </trkpt>
      <trkpt lat="46.70305" lon="-1.93235">
        <ele>2</ele>
        <time>2018-03-22T17:20:05Z</time>
      </trkpt>
      <trkpt lat="46.70298" lon="-1.93246">
        <ele>2</ele>
        <time>2018-03-22T17:21:05Z</time>
      </trkpt>
      <trkpt lat="46.70278" lon="-1.93262">
        <ele>2</ele>
        <time>2018-03-22T17:22:05Z</time>
      </trkpt>
      <trkpt lat="46.70253" lon="-1.93277">
        <ele>2</ele>
        <time>2018-03-22T17:23:05Z</time>
      </trkpt>
      <trkpt lat="46.70238" lon="-1.93293">
        <ele>2</ele>
        <time>2018-03-22T17:24:05Z</time>
      </trkpt>
      <trkpt lat="46.70215" lon="-1.93331">
        <ele>1</ele>
        <time>2018-03-22T17:25:05Z</time>
      </trkpt>
      <trkpt lat="46.70205" lon="-1.93345">
        <ele>1</ele>
        <time>2018-03-22T17:26:05Z</time>
      </trkpt>
      <trkpt lat="46.70203" lon="-1.93339">
        <ele>2</ele>
        <time>2018-03-22T17:27:05Z</time>
      </trkpt>
      <trkpt lat="46.70197" lon="-1.93346">
        <ele>2</ele>
        <time>2018-03-22T17:28:05Z</time>
      </trkpt>
      <trkpt lat="46.70176" lon="-1.93363">
        <ele>2</ele>
        <time>2018-03-22T17:29:05Z</time>
      </trkpt>
      <trkpt lat="46.70166" lon="-1.93367">
        <ele>2</ele>
        <time>2018-03-22T17:30:05Z</time>
      </trkpt>
      <trkpt lat="46.70164" lon="-1.93377">
        <ele>1</ele>
        <time>2018-03-22T17:31:05Z</time>
      </trkpt>
      <trkpt lat="46.7016" lon="-1.93382">
        <ele>1</ele>
        <time>2018-03-22T17:32:05Z</time>
      </trkpt>
      <trkpt lat="46.70145" lon="-1.9339">
        <ele>1</ele>
        <time>2018-03-22T17:33:05Z</time>
      </trkpt>
      <trkpt lat="46.70141" lon="-1.93394">
        <ele>1</ele>
        <time>2018-03-22T17:34:05Z</time>
      </trkpt>
      <trkpt lat="46.70137" lon="-1.93404">
        <ele>1</ele>
        <time>2018-03-22T17:35:05Z</time>
      </trkpt>
      <trkpt lat="46.70128" lon="-1.9341">
        <ele>1</ele>
        <time>2018-03-22T17:36:05Z</time>
      </trkpt>
      <trkpt lat="46.70123" lon="-1.93409">
        <ele>2</ele>
        <time>2018-03-22T17:37:05Z</time>
      </trkpt>
      <trkpt lat="46.70116" lon="-1.93403">
        <ele>2</ele>
        <time>2018-03-22T17:38:05Z</time>
      </trkpt>
      <trkpt lat="46.70092" lon="-1.93408">
        <ele>2</ele>
        <time>2018-03-22T17:39:05Z</time>
      </trkpt>
      <trkpt lat="46.70064" lon="-1.93406">
        <ele>2</ele>
        <time>2018-03-22T17:40:05Z</time>
      </trkpt>
      <trkpt lat="46.70057" lon="-1.93416">
        <ele>2</ele>
        <time>2018-03-22T17:41:05Z</time>
      </trkpt>
      <trkpt lat="46.7005" lon="-1.93406">
        <ele>2</ele>
        <time>2018-03-22T17:42:05Z</time>
      </trkpt>
      <trkpt lat="46.70036" lon="-1.934">
        <ele>2</ele>
        <time>2018-03-22T17:43:05Z</time>
      </trkpt>
      <trkpt lat="46.70026" lon="-1.93389">
        <ele>3</ele>
        <time>2018-03-22T17:44:05Z</time>
      </trkpt>
      <trkpt lat="46.70018" lon="-1.93384">
        <ele>3</ele>
        <time>2018-03-22T17:45:05Z</time>
      </trkpt>
      <trkpt lat="46.69981" lon="-1.93367">
        <ele>3</ele>
        <time>2018-03-22T17:46:05Z</time>
      </trkpt>
      <trkpt lat="46.69973" lon="-1.93368">
        <ele>4</ele>
        <time>2018-03-22T17:47:05Z</time>
      </trkpt>
      <trkpt lat="46.69955" lon="-1.93377">
        <ele>4</ele>
        <time>2018-03-22T17:48:05Z</time>
      </trkpt>
      <trkpt lat="46.6994" lon="-1.9338">
        <ele>4</ele>
        <time>2018-03-22T17:49:05Z</time>
      </trkpt>
      <trkpt lat="46.69915" lon="-1.93381">
        <ele>4</ele>
        <time>2018-03-22T17:50:05Z</time>
      </trkpt>
      <trkpt lat="46.69915" lon="-1.93384">
        <ele>4</ele>
        <time>2018-03-22T17:51:05Z</time>
      </trkpt>
      <trkpt lat="46.6991" lon="-1.93388">
        <ele>4</ele>
        <time>2018-03-22T17:52:05Z</time>
      </trkpt>
      <trkpt lat="46.69907" lon="-1.93386">
        <ele>4</ele>
        <time>2018-03-22T17:53:05Z</time>
      </trkpt>
      <trkpt lat="46.69906" lon="-1.93381">
        <ele>5</ele>
        <time>2018-03-22T17:54:05Z</time>
      </trkpt>
      <trkpt lat="46.69899" lon="-1.93381">
        <ele>5</ele>
        <time>2018-03-22T17:55:05Z</time>
      </trkpt>
      <trkpt lat="46.69869" lon="-1.93392">
        <ele>5</ele>
        <time>2018-03-22T17:56:05Z</time>
      </trkpt>
    </trkseg>
  </trk>
</gpx>